KLM766 TNCM-EHAM
Flight info
| Callsign | KLM766 |
|---|---|
| Flight time | 7h 41m |
| Altitude | 35000 |
| Route | MODOR2 MNOLO M576 OBIKE/M084F350 DCT 20N060W 25N055W/M084F370 30N050W 35N045W 40N040W 46N030W 49N020W DCT SOMAX DCT ATSUR DCT LESLU/N0481F370 DCT BAPHU DCT GAJIT DCT ENHAQ M197 REDFA |
| Aircraft | MD11/H-SDE1E2E3FGHIJ2J3J4J5M1RWXY/LB1D1 |
Departure
| Time | 2026-05-06 07:46 |
|---|---|
| Airport | Princess Juliana International Airport (TNCM) |
Arrival
| Time | 2026-05-06 15:27 |
|---|---|
| Airport | Amsterdam Airport Schiphol (EHAM) |
| Time | Latitude | Longitude | Altitude | Speed | Heading |
|---|---|---|---|---|---|
| 2026-05-06 07:23 | 18.04306 | -63.11499 | 36 ft | 0 kts | 348° |
| 2026-05-06 07:42 | 18.04307 | -63.11499 | 36 ft | 0 kts | 355° |
| 2026-05-06 07:42 | 18.04312 | -63.11496 | 36 ft | 1 kts | 18° |
| 2026-05-06 07:42 | 18.04317 | -63.11489 | 36 ft | 1 kts | 50° |
| 2026-05-06 07:42 | 18.04317 | -63.11479 | 36 ft | 1 kts | 88° |
| 2026-05-06 07:43 | 18.04313 | -63.11473 | 36 ft | 1 kts | 118° |
| 2026-05-06 07:43 | 18.04306 | -63.11470 | 36 ft | 1 kts | 150° |
| 2026-05-06 07:43 | 18.04285 | -63.11468 | 36 ft | 5 kts | 178° |
| 2026-05-06 07:43 | 18.04236 | -63.11480 | 36 ft | 10 kts | 204° |
| 2026-05-06 07:44 | 18.04171 | -63.11539 | 36 ft | 15 kts | 229° |
| 2026-05-06 07:44 | 18.04095 | -63.11639 | 36 ft | 20 kts | 231° |
| 2026-05-06 07:44 | 18.04050 | -63.11786 | 35 ft | 22 kts | 261° |
| 2026-05-06 07:44 | 18.04013 | -63.11927 | 35 ft | 18 kts | 238° |
| 2026-05-06 07:45 | 18.03958 | -63.11956 | 35 ft | 2 kts | 158° |
| 2026-05-06 07:45 | 18.03949 | -63.11938 | 35 ft | 4 kts | 111° |
| 2026-05-06 07:45 | 18.03951 | -63.11894 | 35 ft | 15 kts | 84° |
| 2026-05-06 07:45 | 18.04010 | -63.11467 | 35 ft | 103 kts | 81° |
| 2026-05-06 07:46 | 18.04155 | -63.10466 | 59 ft | 167 kts | 81° |
| 2026-05-06 07:46 | 18.04327 | -63.09268 | 845 ft | 163 kts | 84° |
| 2026-05-06 07:46 | 18.04173 | -63.08117 | 1636 ft | 162 kts | 117° |
| 2026-05-06 07:46 | 18.03315 | -63.07345 | 2139 ft | 170 kts | 158° |
| 2026-05-06 07:47 | 18.02062 | -63.07300 | 2550 ft | 195 kts | 185° |
| 2026-05-06 07:47 | 18.00654 | -63.07576 | 3046 ft | 219 kts | 186° |
| 2026-05-06 07:47 | 17.99092 | -63.07863 | 3577 ft | 237 kts | 185° |
| 2026-05-06 07:47 | 17.97394 | -63.08035 | 4080 ft | 255 kts | 180° |
| 2026-05-06 07:48 | 17.95578 | -63.08072 | 4872 ft | 263 kts | 178° |
| 2026-05-06 07:48 | 17.93755 | -63.08085 | 5822 ft | 267 kts | 178° |
| 2026-05-06 07:48 | 17.91865 | -63.08112 | 6819 ft | 270 kts | 179° |
| 2026-05-06 07:48 | 17.89989 | -63.08156 | 7627 ft | 276 kts | 179° |
| 2026-05-06 07:49 | 17.88054 | -63.08203 | 8441 ft | 282 kts | 178° |
| 2026-05-06 07:49 | 17.86100 | -63.07960 | 9243 ft | 285 kts | 162° |
| 2026-05-06 07:49 | 17.84350 | -63.06999 | 10051 ft | 287 kts | 138° |
| 2026-05-06 07:49 | 17.83161 | -63.05312 | 10734 ft | 292 kts | 111° |
| 2026-05-06 07:50 | 17.82837 | -63.03209 | 11401 ft | 297 kts | 84° |
| 2026-05-06 07:50 | 17.83475 | -63.01152 | 12072 ft | 302 kts | 56° |
| 2026-05-06 07:50 | 17.84961 | -62.99583 | 12618 ft | 313 kts | 32° |
| 2026-05-06 07:50 | 17.86983 | -62.98533 | 12765 ft | 338 kts | 20° |
| 2026-05-06 07:51 | 17.89277 | -62.97671 | 12911 ft | 362 kts | 18° |
| 2026-05-06 07:51 | 17.91738 | -62.96802 | 13179 ft | 381 kts | 18° |
| 2026-05-06 07:51 | 17.94267 | -62.95891 | 13888 ft | 386 kts | 18° |
| 2026-05-06 07:51 | 17.96809 | -62.94946 | 14592 ft | 389 kts | 18° |
| 2026-05-06 07:52 | 17.99353 | -62.93975 | 15304 ft | 390 kts | 19° |
| 2026-05-06 07:52 | 18.01897 | -62.92987 | 15985 ft | 392 kts | 19° |
| 2026-05-06 07:52 | 18.04456 | -62.91968 | 16665 ft | 394 kts | 19° |
| 2026-05-06 07:52 | 18.07026 | -62.90936 | 17332 ft | 396 kts | 19° |
| 2026-05-06 07:53 | 18.09614 | -62.89902 | 17917 ft | 400 kts | 18° |
| 2026-05-06 07:53 | 18.12217 | -62.88870 | 18520 ft | 403 kts | 18° |
| 2026-05-06 07:53 | 18.14849 | -62.87832 | 19042 ft | 406 kts | 18° |
| 2026-05-06 07:53 | 18.17475 | -62.86800 | 19542 ft | 409 kts | 18° |
| 2026-05-06 07:54 | 18.20148 | -62.85754 | 20033 ft | 412 kts | 18° |
| 2026-05-06 07:54 | 18.22840 | -62.84700 | 20521 ft | 415 kts | 18° |
| 2026-05-06 07:54 | 18.25557 | -62.83634 | 21015 ft | 418 kts | 18° |
| 2026-05-06 07:54 | 18.28290 | -62.82560 | 21518 ft | 421 kts | 18° |
| 2026-05-06 07:55 | 18.31046 | -62.81476 | 21996 ft | 424 kts | 18° |
| 2026-05-06 07:55 | 18.33814 | -62.80347 | 22458 ft | 429 kts | 22° |
| 2026-05-06 07:55 | 18.36408 | -62.78762 | 22959 ft | 435 kts | 34° |
| 2026-05-06 07:55 | 18.38729 | -62.76686 | 23462 ft | 441 kts | 41° |
| 2026-05-06 07:56 | 18.40914 | -62.74397 | 23908 ft | 446 kts | 44° |
| 2026-05-06 07:56 | 18.43069 | -62.72033 | 24303 ft | 450 kts | 44° |
| 2026-05-06 07:56 | 18.45252 | -62.69643 | 24696 ft | 455 kts | 44° |
| 2026-05-06 07:56 | 18.47472 | -62.67251 | 25096 ft | 459 kts | 43° |
| 2026-05-06 07:57 | 18.49738 | -62.64850 | 25513 ft | 463 kts | 43° |
| 2026-05-06 07:57 | 18.52035 | -62.62442 | 25909 ft | 468 kts | 43° |
| 2026-05-06 07:57 | 18.54360 | -62.60021 | 26327 ft | 473 kts | 43° |
| 2026-05-06 07:57 | 18.56710 | -62.57578 | 26721 ft | 477 kts | 43° |
| 2026-05-06 07:58 | 18.59085 | -62.55110 | 27114 ft | 482 kts | 43° |
| 2026-05-06 07:58 | 18.61482 | -62.52619 | 27508 ft | 486 kts | 43° |
| 2026-05-06 07:58 | 18.63898 | -62.50105 | 27898 ft | 491 kts | 43° |
| 2026-05-06 07:58 | 18.66341 | -62.47561 | 28266 ft | 495 kts | 44° |
| 2026-05-06 07:59 | 18.68801 | -62.44998 | 28643 ft | 500 kts | 44° |
| 2026-05-06 07:59 | 18.71282 | -62.42411 | 29016 ft | 504 kts | 44° |
| 2026-05-06 07:59 | 18.73785 | -62.39800 | 29390 ft | 508 kts | 44° |
| 2026-05-06 07:59 | 18.76308 | -62.37167 | 29760 ft | 512 kts | 44° |
| 2026-05-06 08:00 | 18.78852 | -62.34511 | 30090 ft | 517 kts | 44° |
| 2026-05-06 08:00 | 18.81418 | -62.31831 | 30398 ft | 520 kts | 44° |
| 2026-05-06 08:00 | 18.83998 | -62.29134 | 30689 ft | 523 kts | 44° |
| 2026-05-06 08:00 | 18.86588 | -62.26427 | 30978 ft | 525 kts | 44° |
| 2026-05-06 08:01 | 18.89189 | -62.23707 | 31317 ft | 526 kts | 44° |
| 2026-05-06 08:01 | 18.91756 | -62.21021 | 31659 ft | 526 kts | 44° |
| 2026-05-06 08:01 | 18.94386 | -62.18267 | 32045 ft | 525 kts | 44° |
| 2026-05-06 08:01 | 18.96952 | -62.15575 | 32402 ft | 525 kts | 44° |
| 2026-05-06 08:02 | 18.99537 | -62.12858 | 32757 ft | 524 kts | 44° |
| 2026-05-06 08:02 | 19.02129 | -62.10135 | 33104 ft | 524 kts | 44° |
| 2026-05-06 08:02 | 19.04714 | -62.07420 | 33443 ft | 523 kts | 44° |
| 2026-05-06 08:02 | 19.07295 | -62.04710 | 33766 ft | 523 kts | 44° |
| 2026-05-06 08:03 | 19.09872 | -62.02005 | 34076 ft | 522 kts | 44° |
| 2026-05-06 08:03 | 19.12452 | -61.99295 | 34333 ft | 522 kts | 44° |
| 2026-05-06 08:03 | 19.15026 | -61.96591 | 34601 ft | 522 kts | 44° |
| 2026-05-06 08:03 | 19.17600 | -61.93886 | 34850 ft | 521 kts | 44° |
| 2026-05-06 08:04 | 19.20173 | -61.91181 | 35024 ft | 522 kts | 44° |
| 2026-05-06 08:04 | 19.22745 | -61.88475 | 35081 ft | 521 kts | 44° |
| 2026-05-06 08:04 | 19.27892 | -61.83056 | 35082 ft | 522 kts | 44° |
| 2026-05-06 08:05 | 19.33019 | -61.77612 | 35091 ft | 522 kts | 47° |
| 2026-05-06 08:05 | 19.37189 | -61.71346 | 35094 ft | 521 kts | 65° |
| 2026-05-06 08:06 | 19.39761 | -61.64197 | 35094 ft | 521 kts | 73° |
| 2026-05-06 08:06 | 19.42058 | -61.56901 | 35094 ft | 522 kts | 72° |
| 2026-05-06 08:07 | 19.44601 | -61.49689 | 35083 ft | 523 kts | 70° |
| 2026-05-06 08:07 | 19.47275 | -61.42523 | 35092 ft | 523 kts | 69° |
| 2026-05-06 08:08 | 19.49504 | -61.36585 | 35093 ft | 523 kts | 69° |
| 2026-05-06 08:08 | 19.52177 | -61.29425 | 35099 ft | 521 kts | 70° |
| 2026-05-06 08:09 | 19.54830 | -61.22285 | 35095 ft | 520 kts | 70° |
| 2026-05-06 08:09 | 19.57475 | -61.15148 | 35098 ft | 520 kts | 70° |
| 2026-05-06 08:10 | 19.60120 | -61.08005 | 35111 ft | 521 kts | 70° |
| 2026-05-06 08:10 | 19.62771 | -61.00837 | 35107 ft | 521 kts | 70° |
| 2026-05-06 08:11 | 19.65409 | -60.93695 | 35106 ft | 519 kts | 70° |
| 2026-05-06 08:11 | 19.68029 | -60.86560 | 35107 ft | 519 kts | 70° |
| 2026-05-06 08:12 | 19.70646 | -60.79421 | 35104 ft | 519 kts | 70° |
| 2026-05-06 08:12 | 19.73267 | -60.72288 | 35097 ft | 517 kts | 70° |
| 2026-05-06 08:13 | 19.75876 | -60.65184 | 35107 ft | 516 kts | 70° |
| 2026-05-06 08:13 | 19.78482 | -60.58080 | 35108 ft | 516 kts | 70° |
| 2026-05-06 08:14 | 19.81087 | -60.50965 | 35106 ft | 518 kts | 70° |
| 2026-05-06 08:14 | 19.83685 | -60.43862 | 35103 ft | 517 kts | 70° |
| 2026-05-06 08:15 | 19.86282 | -60.36749 | 35103 ft | 516 kts | 70° |
| 2026-05-06 08:15 | 19.88878 | -60.29632 | 35104 ft | 516 kts | 70° |
| 2026-05-06 08:16 | 19.91466 | -60.22523 | 35103 ft | 516 kts | 70° |
| 2026-05-06 08:16 | 19.94052 | -60.15412 | 35100 ft | 515 kts | 70° |
| 2026-05-06 08:17 | 19.96641 | -60.08326 | 35107 ft | 514 kts | 68° |
| 2026-05-06 08:17 | 20.00237 | -60.01765 | 35120 ft | 516 kts | 51° |
| 2026-05-06 08:18 | 20.05460 | -59.96525 | 35121 ft | 518 kts | 38° |
| 2026-05-06 08:18 | 20.11148 | -59.91801 | 35118 ft | 519 kts | 39° |
| 2026-05-06 08:19 | 20.16656 | -59.86841 | 35109 ft | 518 kts | 41° |
| 2026-05-06 08:19 | 20.21982 | -59.81754 | 35118 ft | 517 kts | 42° |
| 2026-05-06 08:20 | 20.27316 | -59.76598 | 35120 ft | 518 kts | 42° |
| 2026-05-06 08:20 | 20.32666 | -59.71438 | 35120 ft | 519 kts | 42° |
| 2026-05-06 08:21 | 20.38023 | -59.66282 | 35114 ft | 519 kts | 42° |
| 2026-05-06 08:21 | 20.43414 | -59.61091 | 35117 ft | 519 kts | 42° |
| 2026-05-06 08:22 | 20.48730 | -59.55966 | 35134 ft | 517 kts | 42° |
| 2026-05-06 08:22 | 20.54076 | -59.50806 | 35119 ft | 519 kts | 42° |
| 2026-05-06 08:23 | 20.59420 | -59.45644 | 35118 ft | 519 kts | 42° |
| 2026-05-06 08:23 | 20.64772 | -59.40460 | 35116 ft | 519 kts | 42° |
| 2026-05-06 08:24 | 20.70115 | -59.35275 | 35130 ft | 519 kts | 42° |
| 2026-05-06 08:24 | 20.75463 | -59.30089 | 35125 ft | 520 kts | 42° |
| 2026-05-06 08:25 | 20.80813 | -59.24900 | 35129 ft | 519 kts | 43° |
| 2026-05-06 08:25 | 20.86162 | -59.19708 | 35117 ft | 519 kts | 43° |
| 2026-05-06 08:26 | 20.91511 | -59.14510 | 35127 ft | 519 kts | 43° |
| 2026-05-06 08:26 | 20.96853 | -59.09312 | 35119 ft | 519 kts | 43° |
| 2026-05-06 08:27 | 21.02210 | -59.04095 | 35126 ft | 521 kts | 43° |
| 2026-05-06 08:27 | 21.07565 | -58.98876 | 35132 ft | 519 kts | 43° |
| 2026-05-06 08:28 | 21.12906 | -58.93664 | 35132 ft | 519 kts | 43° |
| 2026-05-06 08:28 | 21.18241 | -58.88452 | 35123 ft | 519 kts | 43° |
| 2026-05-06 08:29 | 21.23581 | -58.83230 | 35130 ft | 521 kts | 43° |
| 2026-05-06 08:29 | 21.28931 | -58.77978 | 35132 ft | 521 kts | 43° |
| 2026-05-06 08:30 | 21.34278 | -58.72729 | 35131 ft | 521 kts | 43° |
| 2026-05-06 08:30 | 21.39631 | -58.67478 | 35136 ft | 521 kts | 43° |
| 2026-05-06 08:31 | 21.44983 | -58.62223 | 35135 ft | 521 kts | 43° |
| 2026-05-06 08:31 | 21.50335 | -58.56964 | 35134 ft | 521 kts | 43° |
| 2026-05-06 08:32 | 21.55683 | -58.51701 | 35135 ft | 521 kts | 43° |
| 2026-05-06 08:32 | 21.61027 | -58.46438 | 35130 ft | 521 kts | 43° |
| 2026-05-06 08:33 | 21.66358 | -58.41182 | 35150 ft | 520 kts | 43° |
| 2026-05-06 08:33 | 21.71692 | -58.35917 | 35139 ft | 521 kts | 43° |
| 2026-05-06 08:34 | 21.79672 | -58.28030 | 35138 ft | 521 kts | 43° |
| 2026-05-06 08:35 | 21.85010 | -58.22745 | 35138 ft | 521 kts | 43° |
| 2026-05-06 08:35 | 21.90338 | -58.17451 | 35136 ft | 521 kts | 43° |
| 2026-05-06 08:36 | 21.95668 | -58.12155 | 35140 ft | 522 kts | 43° |
| 2026-05-06 08:36 | 22.01005 | -58.06856 | 35140 ft | 522 kts | 43° |
| 2026-05-06 08:37 | 22.06340 | -58.01553 | 35143 ft | 522 kts | 43° |
| 2026-05-06 08:37 | 22.11677 | -57.96244 | 35143 ft | 522 kts | 43° |
| 2026-05-06 08:38 | 22.17011 | -57.90931 | 35143 ft | 523 kts | 43° |
| 2026-05-06 08:38 | 22.22336 | -57.85622 | 35143 ft | 522 kts | 43° |
| 2026-05-06 08:39 | 22.27669 | -57.80299 | 35146 ft | 522 kts | 43° |
| 2026-05-06 08:39 | 22.33001 | -57.74970 | 35146 ft | 522 kts | 43° |
| 2026-05-06 08:40 | 22.38327 | -57.69642 | 35149 ft | 523 kts | 43° |
| 2026-05-06 08:40 | 22.43675 | -57.64286 | 35142 ft | 524 kts | 43° |
| 2026-05-06 08:41 | 22.49005 | -57.58933 | 35145 ft | 523 kts | 43° |
| 2026-05-06 08:41 | 22.54325 | -57.53578 | 35148 ft | 522 kts | 43° |
| 2026-05-06 08:42 | 22.59650 | -57.48222 | 35156 ft | 523 kts | 43° |
| 2026-05-06 08:42 | 22.64987 | -57.42854 | 35152 ft | 524 kts | 43° |
| 2026-05-06 08:43 | 22.70324 | -57.37480 | 35147 ft | 524 kts | 43° |
| 2026-05-06 08:43 | 22.75653 | -57.32108 | 35151 ft | 523 kts | 43° |
| 2026-05-06 08:44 | 22.80975 | -57.26737 | 35154 ft | 523 kts | 43° |
| 2026-05-06 08:44 | 22.86306 | -57.21350 | 35155 ft | 524 kts | 43° |
| 2026-05-06 08:45 | 22.91640 | -57.15954 | 35154 ft | 524 kts | 43° |
| 2026-05-06 08:45 | 22.96973 | -57.10553 | 35149 ft | 524 kts | 43° |
| 2026-05-06 08:46 | 23.02292 | -57.05161 | 35154 ft | 523 kts | 43° |
| 2026-05-06 08:46 | 23.07584 | -56.99787 | 35158 ft | 525 kts | 43° |
| 2026-05-06 08:47 | 23.12907 | -56.94360 | 35154 ft | 525 kts | 43° |
| 2026-05-06 08:47 | 23.18236 | -56.88928 | 35154 ft | 525 kts | 43° |
| 2026-05-06 08:48 | 23.23577 | -56.83488 | 35147 ft | 525 kts | 43° |
| 2026-05-06 08:48 | 23.28896 | -56.78065 | 35155 ft | 525 kts | 43° |
| 2026-05-06 08:49 | 23.34224 | -56.72626 | 35157 ft | 525 kts | 43° |
| 2026-05-06 08:49 | 23.39553 | -56.67180 | 35159 ft | 525 kts | 43° |
| 2026-05-06 08:50 | 23.44875 | -56.61734 | 35162 ft | 525 kts | 43° |
| 2026-05-06 08:50 | 23.49302 | -56.57200 | 35156 ft | 526 kts | 43° |
| 2026-05-06 08:51 | 23.54621 | -56.51745 | 35162 ft | 525 kts | 43° |
| 2026-05-06 08:51 | 23.59938 | -56.46287 | 35162 ft | 525 kts | 43° |
| 2026-05-06 08:52 | 23.65252 | -56.40825 | 35162 ft | 525 kts | 43° |
| 2026-05-06 08:52 | 23.70561 | -56.35352 | 35163 ft | 525 kts | 43° |
| 2026-05-06 08:53 | 23.75864 | -56.29872 | 35159 ft | 525 kts | 43° |
| 2026-05-06 08:53 | 23.81150 | -56.24414 | 35162 ft | 524 kts | 43° |
| 2026-05-06 08:54 | 23.86448 | -56.18942 | 35165 ft | 524 kts | 43° |
| 2026-05-06 08:54 | 23.91741 | -56.13471 | 35166 ft | 525 kts | 43° |
| 2026-05-06 08:55 | 23.97045 | -56.07981 | 35165 ft | 525 kts | 43° |
| 2026-05-06 08:55 | 24.02347 | -56.02486 | 35165 ft | 525 kts | 43° |
| 2026-05-06 08:56 | 24.07652 | -55.96982 | 35165 ft | 525 kts | 43° |
| 2026-05-06 08:56 | 24.12952 | -55.91475 | 35168 ft | 526 kts | 43° |
| 2026-05-06 08:57 | 24.18261 | -55.85954 | 35166 ft | 526 kts | 43° |
| 2026-05-06 08:57 | 24.23530 | -55.80467 | 35167 ft | 526 kts | 43° |
| 2026-05-06 08:58 | 24.28835 | -55.74933 | 35166 ft | 526 kts | 43° |
| 2026-05-06 08:58 | 24.34124 | -55.69392 | 35167 ft | 526 kts | 43° |
| 2026-05-06 08:59 | 24.39423 | -55.63843 | 35168 ft | 526 kts | 43° |
| 2026-05-06 08:59 | 24.44726 | -55.58293 | 35165 ft | 526 kts | 43° |
| 2026-05-06 09:00 | 24.50021 | -55.52745 | 35171 ft | 527 kts | 43° |
| 2026-05-06 09:00 | 24.55319 | -55.47189 | 35169 ft | 527 kts | 43° |
| 2026-05-06 09:01 | 24.60619 | -55.41622 | 35174 ft | 527 kts | 43° |
| 2026-05-06 09:01 | 24.65917 | -55.36050 | 35176 ft | 527 kts | 43° |
| 2026-05-06 09:02 | 24.71211 | -55.30476 | 35173 ft | 527 kts | 43° |
| 2026-05-06 09:02 | 24.76480 | -55.24921 | 35170 ft | 528 kts | 43° |
| 2026-05-06 09:03 | 24.81772 | -55.19334 | 35173 ft | 527 kts | 43° |
| 2026-05-06 09:03 | 24.87060 | -55.13746 | 35173 ft | 527 kts | 43° |
| 2026-05-06 09:04 | 24.92341 | -55.08144 | 35182 ft | 527 kts | 43° |
| 2026-05-06 09:04 | 24.97624 | -55.02530 | 35177 ft | 528 kts | 43° |
| 2026-05-06 09:05 | 25.03034 | -54.97064 | 35174 ft | 527 kts | 40° |
| 2026-05-06 09:05 | 25.08616 | -54.91821 | 35179 ft | 527 kts | 39° |
| 2026-05-06 09:06 | 25.14212 | -54.86607 | 35182 ft | 527 kts | 39° |
| 2026-05-06 09:06 | 25.19810 | -54.81347 | 35179 ft | 528 kts | 39° |
| 2026-05-06 09:07 | 25.25390 | -54.76076 | 35179 ft | 528 kts | 39° |
| 2026-05-06 09:07 | 25.30959 | -54.70805 | 35176 ft | 526 kts | 39° |
| 2026-05-06 09:08 | 25.36524 | -54.65535 | 35180 ft | 527 kts | 39° |
| 2026-05-06 09:08 | 25.42079 | -54.60268 | 35179 ft | 527 kts | 39° |
| 2026-05-06 09:09 | 25.47652 | -54.54977 | 35177 ft | 527 kts | 39° |
| 2026-05-06 09:09 | 25.53218 | -54.49686 | 35188 ft | 527 kts | 39° |
| 2026-05-06 09:10 | 25.58747 | -54.44424 | 35177 ft | 528 kts | 39° |
| 2026-05-06 09:10 | 25.64312 | -54.39115 | 35178 ft | 528 kts | 40° |
| 2026-05-06 09:11 | 25.69869 | -54.33794 | 35180 ft | 528 kts | 40° |
| 2026-05-06 09:11 | 25.75427 | -54.28476 | 35178 ft | 527 kts | 39° |
| 2026-05-06 09:12 | 25.80983 | -54.23160 | 35177 ft | 527 kts | 39° |
| 2026-05-06 09:12 | 25.86527 | -54.17851 | 35183 ft | 526 kts | 39° |
| 2026-05-06 09:13 | 25.92065 | -54.12539 | 35191 ft | 526 kts | 39° |
| 2026-05-06 09:13 | 25.97618 | -54.07207 | 35185 ft | 528 kts | 39° |
| 2026-05-06 09:14 | 26.03174 | -54.01864 | 35183 ft | 528 kts | 39° |
| 2026-05-06 09:14 | 26.08688 | -53.96554 | 35182 ft | 527 kts | 39° |
| 2026-05-06 09:15 | 26.14227 | -53.91214 | 35189 ft | 527 kts | 39° |
| 2026-05-06 09:15 | 26.19771 | -53.85863 | 35327 ft | 528 kts | 39° |
| 2026-05-06 09:15 | 26.22545 | -53.83182 | 35555 ft | 528 kts | 39° |
| 2026-05-06 09:16 | 26.25323 | -53.80495 | 35795 ft | 528 kts | 40° |
| 2026-05-06 09:16 | 26.28091 | -53.77809 | 36036 ft | 528 kts | 40° |
| 2026-05-06 09:16 | 26.30857 | -53.75120 | 36251 ft | 527 kts | 40° |
| 2026-05-06 09:16 | 26.33621 | -53.72434 | 36472 ft | 527 kts | 40° |
| 2026-05-06 09:17 | 26.36383 | -53.69751 | 36687 ft | 527 kts | 40° |
| 2026-05-06 09:17 | 26.39144 | -53.67070 | 36893 ft | 527 kts | 40° |
| 2026-05-06 09:17 | 26.41904 | -53.64390 | 37106 ft | 526 kts | 40° |
| 2026-05-06 09:18 | 26.47426 | -53.59026 | 37184 ft | 526 kts | 40° |
| 2026-05-06 09:18 | 26.52953 | -53.53648 | 37194 ft | 527 kts | 40° |
| 2026-05-06 09:19 | 26.58484 | -53.48259 | 37188 ft | 528 kts | 40° |
| 2026-05-06 09:19 | 26.64012 | -53.42866 | 37190 ft | 528 kts | 40° |
| 2026-05-06 09:20 | 26.69544 | -53.37461 | 37190 ft | 528 kts | 40° |
| 2026-05-06 09:20 | 26.75078 | -53.32047 | 37195 ft | 529 kts | 40° |
| 2026-05-06 09:21 | 26.80614 | -53.26624 | 37195 ft | 529 kts | 40° |
| 2026-05-06 09:21 | 26.86141 | -53.21202 | 37192 ft | 528 kts | 40° |
| 2026-05-06 09:22 | 26.91659 | -53.15771 | 37197 ft | 528 kts | 40° |
| 2026-05-06 09:22 | 26.97141 | -53.10361 | 37196 ft | 529 kts | 40° |
| 2026-05-06 09:23 | 27.02667 | -53.04912 | 37199 ft | 529 kts | 40° |
| 2026-05-06 09:23 | 27.08179 | -52.99476 | 37199 ft | 528 kts | 40° |
| 2026-05-06 09:24 | 27.13696 | -52.94028 | 37193 ft | 528 kts | 40° |
| 2026-05-06 09:24 | 27.19214 | -52.88572 | 37190 ft | 528 kts | 40° |
| 2026-05-06 09:25 | 27.24726 | -52.83113 | 37200 ft | 528 kts | 40° |
| 2026-05-06 09:25 | 27.30242 | -52.77642 | 37202 ft | 529 kts | 40° |
| 2026-05-06 09:26 | 27.35751 | -52.72172 | 37212 ft | 527 kts | 40° |
| 2026-05-06 09:26 | 27.41254 | -52.66699 | 37197 ft | 527 kts | 40° |
| 2026-05-06 09:27 | 27.46750 | -52.61226 | 37211 ft | 528 kts | 40° |
| 2026-05-06 09:27 | 27.52245 | -52.55743 | 37204 ft | 528 kts | 40° |
| 2026-05-06 09:28 | 27.57737 | -52.50237 | 37203 ft | 527 kts | 40° |
| 2026-05-06 09:28 | 27.63177 | -52.44785 | 37208 ft | 526 kts | 40° |
| 2026-05-06 09:29 | 27.68653 | -52.39301 | 37210 ft | 526 kts | 40° |
| 2026-05-06 09:29 | 27.74129 | -52.33811 | 37209 ft | 526 kts | 40° |
| 2026-05-06 09:30 | 27.79604 | -52.28314 | 37205 ft | 527 kts | 40° |
| 2026-05-06 09:30 | 27.85068 | -52.22819 | 37217 ft | 526 kts | 40° |
| 2026-05-06 09:31 | 27.90539 | -52.17309 | 37213 ft | 526 kts | 40° |
| 2026-05-06 09:31 | 27.96003 | -52.11798 | 37212 ft | 526 kts | 40° |
| 2026-05-06 09:32 | 28.01472 | -52.06276 | 37214 ft | 527 kts | 40° |
| 2026-05-06 09:32 | 28.06929 | -52.00756 | 37213 ft | 525 kts | 40° |
| 2026-05-06 09:33 | 28.12375 | -51.95241 | 37214 ft | 525 kts | 40° |
| 2026-05-06 09:33 | 28.17809 | -51.89712 | 37222 ft | 525 kts | 40° |
| 2026-05-06 09:34 | 28.23248 | -51.84171 | 37219 ft | 526 kts | 40° |
| 2026-05-06 09:34 | 28.28689 | -51.78633 | 37218 ft | 525 kts | 40° |
| 2026-05-06 09:35 | 28.34122 | -51.73099 | 37229 ft | 525 kts | 40° |
| 2026-05-06 09:35 | 28.38640 | -51.68492 | 37221 ft | 525 kts | 40° |
| 2026-05-06 09:36 | 28.44077 | -51.62940 | 37220 ft | 525 kts | 40° |
| 2026-05-06 09:36 | 28.49511 | -51.57382 | 37212 ft | 525 kts | 40° |
| 2026-05-06 09:37 | 28.54935 | -51.51826 | 37224 ft | 525 kts | 40° |
| 2026-05-06 09:37 | 28.60363 | -51.46259 | 37220 ft | 525 kts | 40° |
| 2026-05-06 09:38 | 28.65790 | -51.40684 | 37225 ft | 525 kts | 40° |
| 2026-05-06 09:38 | 28.71204 | -51.35115 | 37225 ft | 526 kts | 40° |
| 2026-05-06 09:39 | 28.76590 | -51.29561 | 37220 ft | 525 kts | 40° |
| 2026-05-06 09:39 | 28.82000 | -51.23956 | 37224 ft | 525 kts | 40° |
| 2026-05-06 09:40 | 28.87408 | -51.18357 | 37231 ft | 525 kts | 40° |
| 2026-05-06 09:40 | 28.95530 | -51.09950 | 37227 ft | 525 kts | 40° |
| 2026-05-06 09:41 | 29.00942 | -51.04338 | 37228 ft | 526 kts | 40° |
| 2026-05-06 09:41 | 29.06359 | -50.98712 | 37228 ft | 526 kts | 40° |
| 2026-05-06 09:42 | 29.11773 | -50.93081 | 37232 ft | 526 kts | 40° |
| 2026-05-06 09:42 | 29.17188 | -50.87440 | 37222 ft | 526 kts | 40° |
| 2026-05-06 09:43 | 29.22595 | -50.81799 | 37234 ft | 526 kts | 40° |
| 2026-05-06 09:43 | 29.27995 | -50.76156 | 37233 ft | 526 kts | 40° |
| 2026-05-06 09:44 | 29.33398 | -50.70504 | 37234 ft | 526 kts | 40° |
| 2026-05-06 09:44 | 29.38791 | -50.64844 | 37238 ft | 526 kts | 40° |
| 2026-05-06 09:45 | 29.44170 | -50.59175 | 37232 ft | 525 kts | 40° |
| 2026-05-06 09:45 | 29.49517 | -50.53544 | 37234 ft | 524 kts | 40° |
| 2026-05-06 09:46 | 29.54899 | -50.47878 | 37238 ft | 525 kts | 40° |
| 2026-05-06 09:46 | 29.60278 | -50.42208 | 37242 ft | 525 kts | 40° |
| 2026-05-06 09:47 | 29.65654 | -50.36532 | 37240 ft | 524 kts | 40° |
| 2026-05-06 09:47 | 29.71021 | -50.30856 | 37243 ft | 524 kts | 40° |
| 2026-05-06 09:48 | 29.76393 | -50.25166 | 37239 ft | 524 kts | 40° |
| 2026-05-06 09:48 | 29.81758 | -50.19476 | 37244 ft | 524 kts | 40° |
| 2026-05-06 09:49 | 29.87125 | -50.13774 | 37247 ft | 524 kts | 40° |
| 2026-05-06 09:49 | 29.92479 | -50.08077 | 37247 ft | 524 kts | 40° |
| 2026-05-06 09:50 | 29.97832 | -50.02372 | 37247 ft | 524 kts | 40° |
| 2026-05-06 09:50 | 30.03318 | -49.96849 | 37240 ft | 523 kts | 36° |
| 2026-05-06 09:51 | 30.08975 | -49.91592 | 37244 ft | 522 kts | 35° |
| 2026-05-06 09:51 | 30.14655 | -49.86364 | 37256 ft | 522 kts | 36° |
| 2026-05-06 09:52 | 30.20316 | -49.81107 | 37249 ft | 522 kts | 36° |
| 2026-05-06 09:52 | 30.25966 | -49.75828 | 37251 ft | 522 kts | 36° |
| 2026-05-06 09:53 | 30.31599 | -49.70554 | 37246 ft | 522 kts | 36° |
| 2026-05-06 09:53 | 30.37247 | -49.65260 | 37255 ft | 522 kts | 36° |
| 2026-05-06 09:54 | 30.42856 | -49.59997 | 37251 ft | 522 kts | 36° |
| 2026-05-06 09:54 | 30.48503 | -49.54689 | 37264 ft | 523 kts | 36° |
| 2026-05-06 09:55 | 30.54148 | -49.49374 | 37252 ft | 522 kts | 36° |
| 2026-05-06 09:55 | 30.59790 | -49.44055 | 37266 ft | 522 kts | 36° |
| 2026-05-06 09:56 | 30.65422 | -49.38730 | 37266 ft | 523 kts | 36° |
| 2026-05-06 09:56 | 30.71055 | -49.33380 | 37260 ft | 523 kts | 36° |
| 2026-05-06 09:57 | 30.76690 | -49.28031 | 37257 ft | 522 kts | 36° |
| 2026-05-06 09:57 | 30.82318 | -49.22690 | 37266 ft | 523 kts | 36° |
| 2026-05-06 09:58 | 30.87964 | -49.17327 | 37264 ft | 524 kts | 36° |
| 2026-05-06 09:58 | 30.93610 | -49.11954 | 37263 ft | 524 kts | 36° |
| 2026-05-06 09:59 | 30.99213 | -49.06612 | 37257 ft | 523 kts | 36° |
| 2026-05-06 09:59 | 31.04837 | -49.01242 | 37262 ft | 522 kts | 36° |
| 2026-05-06 10:00 | 31.10451 | -48.95874 | 37279 ft | 522 kts | 36° |
| 2026-05-06 10:00 | 31.16082 | -48.90481 | 37269 ft | 525 kts | 36° |
| 2026-05-06 10:01 | 31.21722 | -48.85071 | 37265 ft | 525 kts | 36° |
| 2026-05-06 10:01 | 31.27367 | -48.79646 | 37271 ft | 525 kts | 36° |
| 2026-05-06 10:02 | 31.33004 | -48.74202 | 37271 ft | 526 kts | 36° |
| 2026-05-06 10:02 | 31.38646 | -48.68746 | 37273 ft | 526 kts | 36° |
| 2026-05-06 10:03 | 31.44252 | -48.63329 | 37268 ft | 526 kts | 36° |
| 2026-05-06 10:03 | 31.49894 | -48.57873 | 37274 ft | 526 kts | 36° |
| 2026-05-06 10:04 | 31.55532 | -48.52413 | 37272 ft | 526 kts | 36° |
| 2026-05-06 10:04 | 31.61169 | -48.46944 | 37275 ft | 526 kts | 35° |
| 2026-05-06 10:05 | 31.66806 | -48.41467 | 37280 ft | 525 kts | 36° |
| 2026-05-06 10:05 | 31.72434 | -48.35987 | 37296 ft | 525 kts | 35° |
| 2026-05-06 10:06 | 31.78061 | -48.30501 | 37285 ft | 526 kts | 35° |
| 2026-05-06 10:06 | 31.83687 | -48.25008 | 37281 ft | 526 kts | 35° |
| 2026-05-06 10:07 | 31.89275 | -48.19542 | 37279 ft | 525 kts | 35° |
| 2026-05-06 10:07 | 31.94891 | -48.14031 | 37278 ft | 525 kts | 35° |
| 2026-05-06 10:08 | 32.00487 | -48.08515 | 37281 ft | 525 kts | 35° |
| 2026-05-06 10:08 | 32.06100 | -48.02988 | 37284 ft | 526 kts | 35° |
| 2026-05-06 10:09 | 32.11712 | -47.97461 | 37283 ft | 525 kts | 35° |
| 2026-05-06 10:09 | 32.17320 | -47.91931 | 37292 ft | 525 kts | 35° |
| 2026-05-06 10:10 | 32.22929 | -47.86391 | 37290 ft | 526 kts | 35° |
| 2026-05-06 10:10 | 32.28537 | -47.80841 | 37290 ft | 526 kts | 35° |
| 2026-05-06 10:11 | 32.34101 | -47.75326 | 37289 ft | 525 kts | 35° |
| 2026-05-06 10:11 | 32.39702 | -47.69765 | 37292 ft | 525 kts | 35° |
| 2026-05-06 10:12 | 32.45299 | -47.64199 | 37290 ft | 525 kts | 35° |
| 2026-05-06 10:12 | 32.50890 | -47.58629 | 37285 ft | 525 kts | 35° |
| 2026-05-06 10:13 | 32.56471 | -47.53058 | 37292 ft | 524 kts | 35° |
| 2026-05-06 10:13 | 32.62044 | -47.47464 | 37294 ft | 525 kts | 35° |
| 2026-05-06 10:14 | 32.67618 | -47.41866 | 37292 ft | 525 kts | 35° |
| 2026-05-06 10:14 | 32.73193 | -47.36270 | 37305 ft | 524 kts | 35° |
| 2026-05-06 10:15 | 32.78761 | -47.30677 | 37295 ft | 524 kts | 35° |
| 2026-05-06 10:15 | 32.84326 | -47.25078 | 37295 ft | 524 kts | 35° |
| 2026-05-06 10:16 | 32.89889 | -47.19470 | 37307 ft | 524 kts | 35° |
| 2026-05-06 10:16 | 32.95444 | -47.13860 | 37298 ft | 524 kts | 35° |
| 2026-05-06 10:17 | 33.00997 | -47.08243 | 37305 ft | 524 kts | 35° |
| 2026-05-06 10:17 | 33.06543 | -47.02623 | 37300 ft | 523 kts | 35° |
| 2026-05-06 10:18 | 33.12088 | -46.96994 | 37299 ft | 523 kts | 35° |
| 2026-05-06 10:18 | 33.17631 | -46.91358 | 37304 ft | 523 kts | 35° |
| 2026-05-06 10:19 | 33.23159 | -46.85713 | 37305 ft | 523 kts | 35° |
| 2026-05-06 10:19 | 33.28645 | -46.80091 | 37317 ft | 523 kts | 35° |
| 2026-05-06 10:20 | 33.34198 | -46.74407 | 37306 ft | 522 kts | 35° |
| 2026-05-06 10:20 | 33.39683 | -46.68792 | 37306 ft | 522 kts | 35° |
| 2026-05-06 10:21 | 33.45199 | -46.63135 | 37309 ft | 522 kts | 36° |
| 2026-05-06 10:21 | 33.50709 | -46.57475 | 37308 ft | 522 kts | 36° |
| 2026-05-06 10:22 | 33.56213 | -46.51810 | 37312 ft | 521 kts | 36° |
| 2026-05-06 10:22 | 33.60817 | -46.47064 | 37309 ft | 521 kts | 36° |
| 2026-05-06 10:23 | 33.66295 | -46.41407 | 37311 ft | 521 kts | 36° |
| 2026-05-06 10:23 | 33.71777 | -46.35736 | 37303 ft | 519 kts | 36° |
| 2026-05-06 10:24 | 33.77244 | -46.30072 | 37312 ft | 519 kts | 36° |
| 2026-05-06 10:24 | 33.82675 | -46.24436 | 37306 ft | 519 kts | 36° |
| 2026-05-06 10:25 | 33.88130 | -46.18740 | 37322 ft | 519 kts | 36° |
| 2026-05-06 10:25 | 33.93584 | -46.13038 | 37322 ft | 520 kts | 36° |
| 2026-05-06 10:26 | 33.99032 | -46.07348 | 37325 ft | 517 kts | 36° |
| 2026-05-06 10:26 | 34.04466 | -46.01668 | 37307 ft | 517 kts | 36° |
| 2026-05-06 10:27 | 34.09905 | -45.95975 | 37316 ft | 517 kts | 36° |
| 2026-05-06 10:27 | 34.15332 | -45.90282 | 37316 ft | 517 kts | 36° |
| 2026-05-06 10:28 | 34.20757 | -45.84581 | 37328 ft | 517 kts | 36° |
| 2026-05-06 10:28 | 34.26176 | -45.78877 | 37320 ft | 516 kts | 36° |
| 2026-05-06 10:29 | 34.31592 | -45.73165 | 37322 ft | 516 kts | 36° |
| 2026-05-06 10:29 | 34.37003 | -45.67448 | 37321 ft | 516 kts | 36° |
| 2026-05-06 10:30 | 34.42411 | -45.61725 | 37321 ft | 516 kts | 36° |
| 2026-05-06 10:30 | 34.47814 | -45.55988 | 37320 ft | 516 kts | 36° |
| 2026-05-06 10:31 | 34.53170 | -45.50269 | 37321 ft | 516 kts | 36° |
| 2026-05-06 10:31 | 34.58563 | -45.44517 | 37333 ft | 516 kts | 36° |
| 2026-05-06 10:32 | 34.63949 | -45.38775 | 37326 ft | 516 kts | 36° |
| 2026-05-06 10:32 | 34.69339 | -45.33020 | 37337 ft | 515 kts | 36° |
| 2026-05-06 10:33 | 34.74719 | -45.27265 | 37326 ft | 515 kts | 36° |
| 2026-05-06 10:33 | 34.80100 | -45.21498 | 37325 ft | 515 kts | 36° |
| 2026-05-06 10:34 | 34.85479 | -45.15722 | 37330 ft | 515 kts | 36° |
| 2026-05-06 10:34 | 34.90853 | -45.09942 | 37331 ft | 515 kts | 36° |
| 2026-05-06 10:35 | 34.96223 | -45.04155 | 37341 ft | 516 kts | 36° |
| 2026-05-06 10:35 | 35.01668 | -44.98469 | 37337 ft | 514 kts | 32° |
| 2026-05-06 10:36 | 35.07328 | -44.93169 | 37335 ft | 512 kts | 31° |
| 2026-05-06 10:36 | 35.13043 | -44.87963 | 37338 ft | 512 kts | 31° |
| 2026-05-06 10:37 | 35.18742 | -44.82728 | 37339 ft | 513 kts | 31° |
| 2026-05-06 10:37 | 35.24426 | -44.77464 | 37333 ft | 512 kts | 31° |
| 2026-05-06 10:38 | 35.30097 | -44.72196 | 37351 ft | 512 kts | 31° |
| 2026-05-06 10:38 | 35.35732 | -44.66952 | 37336 ft | 512 kts | 31° |
| 2026-05-06 10:39 | 35.41407 | -44.61663 | 37349 ft | 513 kts | 31° |
| 2026-05-06 10:39 | 35.47087 | -44.56361 | 37353 ft | 513 kts | 31° |
| 2026-05-06 10:40 | 35.52771 | -44.51045 | 37343 ft | 514 kts | 31° |
| 2026-05-06 10:40 | 35.58452 | -44.45722 | 37346 ft | 514 kts | 31° |
| 2026-05-06 10:41 | 35.64136 | -44.40385 | 37343 ft | 514 kts | 31° |
| 2026-05-06 10:41 | 35.69813 | -44.35026 | 37353 ft | 514 kts | 31° |
| 2026-05-06 10:42 | 35.75476 | -44.29667 | 37348 ft | 513 kts | 31° |
| 2026-05-06 10:42 | 35.81142 | -44.24314 | 37351 ft | 514 kts | 31° |
| 2026-05-06 10:43 | 35.86812 | -44.18953 | 37350 ft | 514 kts | 31° |
| 2026-05-06 10:44 | 35.95311 | -44.10897 | 37361 ft | 514 kts | 31° |
| 2026-05-06 10:44 | 36.00932 | -44.05556 | 37355 ft | 513 kts | 31° |
| 2026-05-06 10:45 | 36.06583 | -44.00177 | 37357 ft | 513 kts | 31° |
| 2026-05-06 10:45 | 36.12225 | -43.94797 | 37361 ft | 512 kts | 30° |
| 2026-05-06 10:46 | 36.17868 | -43.89406 | 37358 ft | 512 kts | 30° |
| 2026-05-06 10:46 | 36.23507 | -43.84009 | 37361 ft | 512 kts | 30° |
| 2026-05-06 10:47 | 36.29142 | -43.78604 | 37348 ft | 512 kts | 30° |
| 2026-05-06 10:47 | 36.34770 | -43.73181 | 37360 ft | 512 kts | 30° |
| 2026-05-06 10:48 | 36.40391 | -43.67745 | 37362 ft | 512 kts | 30° |
| 2026-05-06 10:48 | 36.46016 | -43.62312 | 37373 ft | 512 kts | 30° |
| 2026-05-06 10:49 | 36.51646 | -43.56872 | 37364 ft | 513 kts | 30° |
| 2026-05-06 10:49 | 36.57278 | -43.51421 | 37367 ft | 513 kts | 30° |
| 2026-05-06 10:50 | 36.62909 | -43.45959 | 37370 ft | 513 kts | 30° |
| 2026-05-06 10:50 | 36.68543 | -43.40485 | 37369 ft | 514 kts | 30° |
| 2026-05-06 10:51 | 36.74171 | -43.35004 | 37384 ft | 514 kts | 30° |
| 2026-05-06 10:51 | 36.79799 | -43.29514 | 37365 ft | 514 kts | 30° |
| 2026-05-06 10:52 | 36.85443 | -43.24000 | 37380 ft | 515 kts | 30° |
| 2026-05-06 10:52 | 36.91085 | -43.18473 | 37374 ft | 515 kts | 30° |
| 2026-05-06 10:53 | 36.96726 | -43.12936 | 37376 ft | 515 kts | 30° |
| 2026-05-06 10:53 | 37.02342 | -43.07389 | 37392 ft | 515 kts | 30° |
| 2026-05-06 10:54 | 37.07930 | -43.01863 | 37381 ft | 515 kts | 30° |
| 2026-05-06 10:54 | 37.13595 | -42.96268 | 37408 ft | 515 kts | 29° |
| 2026-05-06 10:55 | 37.19203 | -42.90721 | 37385 ft | 513 kts | 29° |
| 2026-05-06 10:55 | 37.24807 | -42.85171 | 37387 ft | 513 kts | 29° |
| 2026-05-06 10:56 | 37.30370 | -42.79650 | 37392 ft | 512 kts | 29° |
| 2026-05-06 10:56 | 37.35957 | -42.74092 | 37392 ft | 512 kts | 29° |
| 2026-05-06 10:57 | 37.41548 | -42.68520 | 37411 ft | 512 kts | 29° |
| 2026-05-06 10:57 | 37.47127 | -42.62949 | 37422 ft | 512 kts | 29° |
| 2026-05-06 10:58 | 37.52694 | -42.57377 | 37396 ft | 511 kts | 28° |
| 2026-05-06 10:58 | 37.58251 | -42.51808 | 37401 ft | 510 kts | 28° |
| 2026-05-06 10:59 | 37.63797 | -42.46231 | 37402 ft | 510 kts | 29° |
| 2026-05-06 10:59 | 37.69339 | -42.40623 | 37400 ft | 510 kts | 29° |
| 2026-05-06 11:00 | 37.74880 | -42.35020 | 37406 ft | 510 kts | 28° |
| 2026-05-06 11:00 | 37.80414 | -42.29427 | 37411 ft | 510 kts | 28° |
| 2026-05-06 11:01 | 37.85950 | -42.23821 | 37414 ft | 509 kts | 28° |
| 2026-05-06 11:01 | 37.91476 | -42.18216 | 37412 ft | 509 kts | 28° |
| 2026-05-06 11:02 | 37.96959 | -42.12643 | 37436 ft | 509 kts | 28° |
| 2026-05-06 11:02 | 38.02471 | -42.07028 | 37417 ft | 508 kts | 28° |
| 2026-05-06 11:03 | 38.07978 | -42.01409 | 37414 ft | 508 kts | 28° |
| 2026-05-06 11:03 | 38.13476 | -41.95787 | 37410 ft | 506 kts | 28° |
| 2026-05-06 11:04 | 38.18959 | -41.90168 | 37425 ft | 506 kts | 28° |
| 2026-05-06 11:04 | 38.24436 | -41.84546 | 37443 ft | 506 kts | 28° |
| 2026-05-06 11:05 | 38.29886 | -41.78925 | 37422 ft | 504 kts | 28° |
| 2026-05-06 11:05 | 38.35325 | -41.73289 | 37424 ft | 504 kts | 28° |
| 2026-05-06 11:06 | 38.40759 | -41.67665 | 37425 ft | 503 kts | 28° |
| 2026-05-06 11:06 | 38.46189 | -41.62045 | 37427 ft | 503 kts | 28° |
| 2026-05-06 11:07 | 38.51621 | -41.56415 | 37432 ft | 503 kts | 28° |
| 2026-05-06 11:07 | 38.56129 | -41.51732 | 37431 ft | 502 kts | 28° |
| 2026-05-06 11:08 | 38.61551 | -41.46088 | 37428 ft | 502 kts | 28° |
| 2026-05-06 11:08 | 38.66958 | -41.40449 | 37448 ft | 502 kts | 28° |
| 2026-05-06 11:09 | 38.72372 | -41.34792 | 37430 ft | 502 kts | 28° |
| 2026-05-06 11:09 | 38.77782 | -41.29127 | 37427 ft | 502 kts | 28° |
| 2026-05-06 11:10 | 38.83157 | -41.23488 | 37439 ft | 502 kts | 28° |
| 2026-05-06 11:10 | 38.88563 | -41.17805 | 37440 ft | 503 kts | 27° |
| 2026-05-06 11:11 | 38.93971 | -41.12099 | 37427 ft | 504 kts | 28° |
| 2026-05-06 11:11 | 38.99378 | -41.06358 | 37429 ft | 505 kts | 28° |
| 2026-05-06 11:12 | 39.04800 | -41.00607 | 37429 ft | 505 kts | 28° |
| 2026-05-06 11:12 | 39.10222 | -40.94857 | 37425 ft | 505 kts | 28° |
| 2026-05-06 11:13 | 39.15645 | -40.89098 | 37426 ft | 505 kts | 28° |
| 2026-05-06 11:13 | 39.21064 | -40.83331 | 37427 ft | 505 kts | 28° |
| 2026-05-06 11:14 | 39.26492 | -40.77542 | 37439 ft | 507 kts | 27° |
| 2026-05-06 11:14 | 39.31915 | -40.71751 | 37428 ft | 509 kts | 28° |
| 2026-05-06 11:15 | 39.37366 | -40.65909 | 37426 ft | 509 kts | 28° |
| 2026-05-06 11:15 | 39.42827 | -40.60047 | 37428 ft | 510 kts | 28° |
| 2026-05-06 11:16 | 39.48286 | -40.54175 | 37431 ft | 511 kts | 28° |
| 2026-05-06 11:16 | 39.53748 | -40.48287 | 37446 ft | 511 kts | 28° |
| 2026-05-06 11:17 | 39.59206 | -40.42374 | 37429 ft | 512 kts | 28° |
| 2026-05-06 11:17 | 39.64662 | -40.36436 | 37434 ft | 514 kts | 28° |
| 2026-05-06 11:18 | 39.70152 | -40.30472 | 37430 ft | 515 kts | 28° |
| 2026-05-06 11:18 | 39.75615 | -40.24530 | 37423 ft | 515 kts | 28° |
| 2026-05-06 11:19 | 39.81147 | -40.18502 | 37428 ft | 515 kts | 28° |
| 2026-05-06 11:19 | 39.86605 | -40.12544 | 37429 ft | 515 kts | 28° |
| 2026-05-06 11:20 | 39.92099 | -40.06532 | 37428 ft | 516 kts | 29° |
| 2026-05-06 11:20 | 39.97591 | -40.00510 | 37424 ft | 516 kts | 29° |
| 2026-05-06 11:21 | 40.03083 | -39.94474 | 37432 ft | 516 kts | 29° |
| 2026-05-06 11:21 | 40.08571 | -39.88430 | 37425 ft | 516 kts | 29° |
| 2026-05-06 11:22 | 40.14059 | -39.82372 | 37437 ft | 516 kts | 29° |
| 2026-05-06 11:22 | 40.19361 | -39.75914 | 37419 ft | 527 kts | 36° |
| 2026-05-06 11:23 | 40.24311 | -39.68784 | 37420 ft | 531 kts | 38° |
| 2026-05-06 11:23 | 40.29197 | -39.61568 | 37426 ft | 530 kts | 38° |
| 2026-05-06 11:24 | 40.34126 | -39.54388 | 37420 ft | 529 kts | 38° |
| 2026-05-06 11:24 | 40.39074 | -39.47233 | 37419 ft | 529 kts | 38° |
| 2026-05-06 11:25 | 40.44016 | -39.40078 | 37451 ft | 529 kts | 38° |
| 2026-05-06 11:25 | 40.48946 | -39.32918 | 37418 ft | 528 kts | 38° |
| 2026-05-06 11:26 | 40.53870 | -39.25746 | 37414 ft | 528 kts | 38° |
| 2026-05-06 11:26 | 40.58793 | -39.18560 | 37411 ft | 529 kts | 38° |
| 2026-05-06 11:27 | 40.63710 | -39.11365 | 37409 ft | 529 kts | 38° |
| 2026-05-06 11:27 | 40.68592 | -39.04203 | 37421 ft | 529 kts | 38° |
| 2026-05-06 11:28 | 40.73496 | -38.96979 | 37411 ft | 529 kts | 38° |
| 2026-05-06 11:28 | 40.78380 | -38.89728 | 37406 ft | 529 kts | 38° |
| 2026-05-06 11:29 | 40.83275 | -38.82472 | 37414 ft | 528 kts | 39° |
| 2026-05-06 11:29 | 40.88162 | -38.75232 | 37406 ft | 528 kts | 39° |
| 2026-05-06 11:30 | 40.93054 | -38.67972 | 37404 ft | 528 kts | 39° |
| 2026-05-06 11:30 | 40.97928 | -38.60719 | 37410 ft | 526 kts | 39° |
| 2026-05-06 11:31 | 41.02792 | -38.53461 | 37398 ft | 526 kts | 39° |
| 2026-05-06 11:31 | 41.07644 | -38.46207 | 37394 ft | 526 kts | 39° |
| 2026-05-06 11:32 | 41.12489 | -38.38946 | 37398 ft | 525 kts | 40° |
| 2026-05-06 11:32 | 41.17320 | -38.31685 | 37393 ft | 525 kts | 40° |
| 2026-05-06 11:33 | 41.22149 | -38.24412 | 37418 ft | 525 kts | 40° |
| 2026-05-06 11:33 | 41.26972 | -38.17129 | 37392 ft | 525 kts | 40° |
| 2026-05-06 11:34 | 41.31776 | -38.09809 | 37392 ft | 525 kts | 41° |
| 2026-05-06 11:34 | 41.36545 | -38.02534 | 37404 ft | 525 kts | 41° |
| 2026-05-06 11:35 | 41.41360 | -37.95204 | 37384 ft | 526 kts | 41° |
| 2026-05-06 11:35 | 41.46175 | -37.87863 | 37378 ft | 526 kts | 41° |
| 2026-05-06 11:36 | 41.50975 | -37.80527 | 37397 ft | 525 kts | 42° |
| 2026-05-06 11:36 | 41.55774 | -37.73175 | 37378 ft | 525 kts | 42° |
| 2026-05-06 11:37 | 41.60566 | -37.65815 | 37374 ft | 525 kts | 42° |
| 2026-05-06 11:37 | 41.65353 | -37.58444 | 37374 ft | 525 kts | 42° |
| 2026-05-06 11:38 | 41.70141 | -37.51055 | 37375 ft | 526 kts | 42° |
| 2026-05-06 11:38 | 41.74917 | -37.43661 | 37368 ft | 526 kts | 43° |
| 2026-05-06 11:39 | 41.79697 | -37.36244 | 37377 ft | 525 kts | 43° |
| 2026-05-06 11:39 | 41.84466 | -37.28799 | 37659 ft | 526 kts | 43° |
| 2026-05-06 11:39 | 41.86839 | -37.25071 | 37935 ft | 525 kts | 43° |
| 2026-05-06 11:40 | 41.89212 | -37.21345 | 38202 ft | 524 kts | 43° |
| 2026-05-06 11:40 | 41.91579 | -37.17634 | 38479 ft | 523 kts | 43° |
| 2026-05-06 11:40 | 41.93944 | -37.13930 | 38735 ft | 522 kts | 43° |
| 2026-05-06 11:40 | 41.96305 | -37.10231 | 38985 ft | 521 kts | 43° |
| 2026-05-06 11:41 | 41.98664 | -37.06533 | 39221 ft | 520 kts | 43° |
| 2026-05-06 11:41 | 42.03361 | -36.99157 | 39353 ft | 518 kts | 43° |
| 2026-05-06 11:42 | 42.08039 | -36.91794 | 39359 ft | 517 kts | 44° |
| 2026-05-06 11:42 | 42.12677 | -36.84473 | 39358 ft | 517 kts | 44° |
| 2026-05-06 11:43 | 42.17348 | -36.77081 | 39355 ft | 517 kts | 44° |
| 2026-05-06 11:43 | 42.22005 | -36.69693 | 39358 ft | 517 kts | 44° |
| 2026-05-06 11:44 | 42.28987 | -36.58581 | 39344 ft | 517 kts | 44° |
| 2026-05-06 11:44 | 42.33638 | -36.51155 | 39360 ft | 517 kts | 44° |
| 2026-05-06 11:45 | 42.38270 | -36.43715 | 39345 ft | 517 kts | 45° |
| 2026-05-06 11:45 | 42.42882 | -36.36258 | 39341 ft | 517 kts | 45° |
| 2026-05-06 11:46 | 42.47507 | -36.28798 | 39355 ft | 517 kts | 45° |
| 2026-05-06 11:46 | 42.52139 | -36.21329 | 39353 ft | 516 kts | 45° |
| 2026-05-06 11:47 | 42.56743 | -36.13885 | 39334 ft | 514 kts | 45° |
| 2026-05-06 11:47 | 42.61337 | -36.06440 | 39341 ft | 514 kts | 45° |
| 2026-05-06 11:48 | 42.65932 | -35.98976 | 39332 ft | 515 kts | 45° |
| 2026-05-06 11:48 | 42.70523 | -35.91496 | 39327 ft | 515 kts | 45° |
| 2026-05-06 11:49 | 42.75082 | -35.84051 | 39327 ft | 515 kts | 45° |
| 2026-05-06 11:49 | 42.79667 | -35.76543 | 39320 ft | 516 kts | 45° |
| 2026-05-06 11:50 | 42.84247 | -35.69024 | 39318 ft | 516 kts | 45° |
| 2026-05-06 11:50 | 42.88820 | -35.61497 | 39317 ft | 516 kts | 45° |
| 2026-05-06 11:51 | 42.93375 | -35.53928 | 39316 ft | 516 kts | 46° |
| 2026-05-06 11:51 | 42.97932 | -35.46344 | 39311 ft | 516 kts | 46° |
| 2026-05-06 11:52 | 43.02497 | -35.38763 | 39306 ft | 516 kts | 46° |
| 2026-05-06 11:52 | 43.07064 | -35.31171 | 39306 ft | 517 kts | 46° |
| 2026-05-06 11:53 | 43.10846 | -35.24869 | 39304 ft | 517 kts | 46° |
| 2026-05-06 11:53 | 43.15405 | -35.17252 | 39301 ft | 517 kts | 46° |
| 2026-05-06 11:54 | 43.19958 | -35.09625 | 39301 ft | 517 kts | 46° |
| 2026-05-06 11:54 | 43.24513 | -35.01976 | 39292 ft | 518 kts | 46° |
| 2026-05-06 11:55 | 43.29059 | -34.94319 | 39296 ft | 518 kts | 46° |
| 2026-05-06 11:55 | 43.33602 | -34.86650 | 39293 ft | 518 kts | 46° |
| 2026-05-06 11:56 | 43.38140 | -34.78968 | 39290 ft | 518 kts | 46° |
| 2026-05-06 11:56 | 43.42670 | -34.71270 | 39291 ft | 518 kts | 47° |
| 2026-05-06 11:57 | 43.47146 | -34.63588 | 39291 ft | 518 kts | 47° |
| 2026-05-06 11:57 | 43.51661 | -34.55850 | 39275 ft | 519 kts | 47° |
| 2026-05-06 11:58 | 43.56186 | -34.48102 | 39290 ft | 518 kts | 47° |
| 2026-05-06 11:58 | 43.60691 | -34.40376 | 39282 ft | 516 kts | 47° |
| 2026-05-06 11:59 | 43.65189 | -34.32642 | 39275 ft | 517 kts | 47° |
| 2026-05-06 11:59 | 43.69688 | -34.24885 | 39270 ft | 517 kts | 47° |
| 2026-05-06 12:00 | 43.74176 | -34.17124 | 39273 ft | 516 kts | 47° |
| 2026-05-06 12:00 | 43.78670 | -34.09333 | 39269 ft | 518 kts | 47° |
| 2026-05-06 12:01 | 43.83163 | -34.01524 | 39263 ft | 519 kts | 47° |
| 2026-05-06 12:01 | 43.87654 | -33.93694 | 39261 ft | 519 kts | 47° |
| 2026-05-06 12:02 | 43.92112 | -33.85903 | 39257 ft | 520 kts | 47° |
| 2026-05-06 12:02 | 43.96587 | -33.78022 | 39253 ft | 520 kts | 48° |
| 2026-05-06 12:03 | 44.01050 | -33.70118 | 39252 ft | 520 kts | 48° |
| 2026-05-06 12:03 | 44.05519 | -33.62222 | 39257 ft | 520 kts | 48° |
| 2026-05-06 12:04 | 44.09998 | -33.54308 | 39246 ft | 520 kts | 48° |
| 2026-05-06 12:04 | 44.14459 | -33.46407 | 39246 ft | 518 kts | 48° |
| 2026-05-06 12:05 | 44.18908 | -33.38503 | 39233 ft | 518 kts | 48° |
| 2026-05-06 12:05 | 44.23356 | -33.30580 | 39242 ft | 518 kts | 48° |
| 2026-05-06 12:06 | 44.27795 | -33.22651 | 39230 ft | 519 kts | 48° |
| 2026-05-06 12:06 | 44.32229 | -33.14707 | 39251 ft | 519 kts | 48° |
| 2026-05-06 12:07 | 44.36656 | -33.06755 | 39225 ft | 518 kts | 48° |
| 2026-05-06 12:07 | 44.41078 | -32.98791 | 39222 ft | 518 kts | 48° |
| 2026-05-06 12:08 | 44.45484 | -32.90827 | 39219 ft | 519 kts | 49° |
| 2026-05-06 12:08 | 44.49873 | -32.82808 | 39215 ft | 519 kts | 49° |
| 2026-05-06 12:09 | 44.54261 | -32.74793 | 39213 ft | 518 kts | 49° |
| 2026-05-06 12:09 | 44.58657 | -32.66778 | 39209 ft | 518 kts | 49° |
| 2026-05-06 12:10 | 44.63049 | -32.58760 | 39209 ft | 518 kts | 49° |
| 2026-05-06 12:10 | 44.67428 | -32.50742 | 39206 ft | 516 kts | 49° |
| 2026-05-06 12:11 | 44.71793 | -32.42724 | 39203 ft | 516 kts | 49° |
| 2026-05-06 12:11 | 44.76149 | -32.34702 | 39193 ft | 516 kts | 49° |
| 2026-05-06 12:12 | 44.80503 | -32.26661 | 39192 ft | 516 kts | 49° |
| 2026-05-06 12:12 | 44.84849 | -32.18611 | 39193 ft | 516 kts | 49° |
| 2026-05-06 12:13 | 44.89187 | -32.10552 | 39201 ft | 516 kts | 49° |
| 2026-05-06 12:13 | 44.93522 | -32.02479 | 39192 ft | 516 kts | 49° |
| 2026-05-06 12:14 | 44.97837 | -31.94384 | 39184 ft | 516 kts | 50° |
| 2026-05-06 12:14 | 45.02140 | -31.86252 | 39178 ft | 516 kts | 49° |
| 2026-05-06 12:15 | 45.06444 | -31.78140 | 39180 ft | 515 kts | 49° |
| 2026-05-06 12:15 | 45.10749 | -31.70029 | 39173 ft | 515 kts | 49° |
| 2026-05-06 12:16 | 45.15020 | -31.61964 | 39167 ft | 515 kts | 50° |
| 2026-05-06 12:16 | 45.19312 | -31.53832 | 39179 ft | 515 kts | 50° |
| 2026-05-06 12:17 | 45.23591 | -31.45702 | 39161 ft | 514 kts | 50° |
| 2026-05-06 12:17 | 45.27863 | -31.37561 | 39156 ft | 514 kts | 50° |
| 2026-05-06 12:18 | 45.32128 | -31.29411 | 39154 ft | 514 kts | 50° |
| 2026-05-06 12:18 | 45.36385 | -31.21252 | 39146 ft | 514 kts | 50° |
| 2026-05-06 12:19 | 45.40635 | -31.13083 | 39146 ft | 513 kts | 50° |
| 2026-05-06 12:19 | 45.44876 | -31.04908 | 39140 ft | 513 kts | 50° |
| 2026-05-06 12:20 | 45.49093 | -30.96690 | 39137 ft | 513 kts | 51° |
| 2026-05-06 12:20 | 45.53301 | -30.88471 | 39132 ft | 513 kts | 50° |
| 2026-05-06 12:21 | 45.57517 | -30.80261 | 39132 ft | 513 kts | 50° |
| 2026-05-06 12:21 | 45.61735 | -30.72038 | 39135 ft | 513 kts | 50° |
| 2026-05-06 12:22 | 45.65940 | -30.63817 | 39118 ft | 512 kts | 51° |
| 2026-05-06 12:22 | 45.70142 | -30.55577 | 39116 ft | 512 kts | 51° |
| 2026-05-06 12:23 | 45.74325 | -30.47350 | 39120 ft | 512 kts | 51° |
| 2026-05-06 12:23 | 45.78512 | -30.39089 | 39111 ft | 512 kts | 51° |
| 2026-05-06 12:24 | 45.82688 | -30.30826 | 39101 ft | 512 kts | 51° |
| 2026-05-06 12:24 | 45.86856 | -30.22554 | 39100 ft | 512 kts | 51° |
| 2026-05-06 12:25 | 45.90994 | -30.14318 | 39097 ft | 512 kts | 51° |
| 2026-05-06 12:25 | 45.95172 | -30.05965 | 39085 ft | 511 kts | 51° |
| 2026-05-06 12:26 | 45.99294 | -29.97628 | 39078 ft | 512 kts | 51° |
| 2026-05-06 12:26 | 46.03401 | -29.89338 | 39079 ft | 511 kts | 51° |
| 2026-05-06 12:27 | 46.07530 | -29.81004 | 39075 ft | 511 kts | 52° |
| 2026-05-06 12:27 | 46.11181 | -29.72179 | 39056 ft | 514 kts | 60° |
| 2026-05-06 12:28 | 46.14410 | -29.62961 | 39070 ft | 515 kts | 61° |
| 2026-05-06 12:28 | 46.17609 | -29.53724 | 39051 ft | 515 kts | 61° |
| 2026-05-06 12:29 | 46.20850 | -29.44520 | 39061 ft | 515 kts | 60° |
| 2026-05-06 12:29 | 46.24110 | -29.35305 | 39051 ft | 515 kts | 60° |
| 2026-05-06 12:30 | 46.27361 | -29.26092 | 39057 ft | 515 kts | 60° |
| 2026-05-06 12:30 | 46.30603 | -29.16865 | 39044 ft | 514 kts | 60° |
| 2026-05-06 12:31 | 46.33834 | -29.07631 | 39049 ft | 514 kts | 61° |
| 2026-05-06 12:31 | 46.37058 | -28.98386 | 39045 ft | 514 kts | 61° |
| 2026-05-06 12:32 | 46.40252 | -28.89194 | 39045 ft | 514 kts | 61° |
| 2026-05-06 12:32 | 46.43459 | -28.79933 | 39045 ft | 513 kts | 61° |
| 2026-05-06 12:33 | 46.46650 | -28.70667 | 39063 ft | 514 kts | 61° |
| 2026-05-06 12:33 | 46.49807 | -28.61363 | 39052 ft | 514 kts | 61° |
| 2026-05-06 12:34 | 46.52977 | -28.52046 | 39057 ft | 514 kts | 61° |
| 2026-05-06 12:34 | 46.56149 | -28.42745 | 39057 ft | 514 kts | 61° |
| 2026-05-06 12:35 | 46.59326 | -28.33419 | 39054 ft | 515 kts | 61° |
| 2026-05-06 12:35 | 46.62490 | -28.24089 | 39062 ft | 514 kts | 62° |
| 2026-05-06 12:36 | 46.65637 | -28.14768 | 39073 ft | 511 kts | 62° |
| 2026-05-06 12:36 | 46.68764 | -28.05478 | 39067 ft | 511 kts | 62° |
| 2026-05-06 12:37 | 46.71889 | -27.96163 | 39070 ft | 511 kts | 62° |
| 2026-05-06 12:37 | 46.74477 | -27.88420 | 39062 ft | 511 kts | 62° |
| 2026-05-06 12:38 | 46.77578 | -27.79114 | 39069 ft | 512 kts | 62° |
| 2026-05-06 12:38 | 46.80681 | -27.69769 | 39079 ft | 512 kts | 62° |
| 2026-05-06 12:39 | 46.83768 | -27.60397 | 39081 ft | 512 kts | 62° |
| 2026-05-06 12:39 | 46.86822 | -27.51001 | 39088 ft | 513 kts | 62° |
| 2026-05-06 12:40 | 46.89897 | -27.41582 | 39083 ft | 513 kts | 62° |
| 2026-05-06 12:40 | 46.92978 | -27.32164 | 39088 ft | 513 kts | 62° |
| 2026-05-06 12:41 | 46.96055 | -27.22730 | 39088 ft | 514 kts | 62° |
| 2026-05-06 12:41 | 46.99120 | -27.13296 | 39091 ft | 512 kts | 62° |
| 2026-05-06 12:42 | 47.02169 | -27.03876 | 39094 ft | 511 kts | 62° |
| 2026-05-06 12:42 | 47.05209 | -26.94448 | 39094 ft | 511 kts | 62° |
| 2026-05-06 12:43 | 47.08242 | -26.85006 | 39100 ft | 511 kts | 63° |
| 2026-05-06 12:43 | 47.11260 | -26.75578 | 39102 ft | 509 kts | 63° |
| 2026-05-06 12:44 | 47.14245 | -26.66214 | 39096 ft | 509 kts | 63° |
| 2026-05-06 12:44 | 47.17243 | -26.56780 | 39100 ft | 509 kts | 63° |
| 2026-05-06 12:45 | 47.20207 | -26.47328 | 39102 ft | 508 kts | 63° |
| 2026-05-06 12:46 | 47.24601 | -26.33233 | 39102 ft | 504 kts | 63° |
| 2026-05-06 12:46 | 47.27539 | -26.23856 | 39103 ft | 504 kts | 63° |
| 2026-05-06 12:47 | 47.30477 | -26.14458 | 39106 ft | 504 kts | 63° |
| 2026-05-06 12:47 | 47.33386 | -26.05117 | 39104 ft | 504 kts | 63° |
| 2026-05-06 12:48 | 47.36303 | -25.95711 | 39107 ft | 504 kts | 63° |
| 2026-05-06 12:48 | 47.39213 | -25.86291 | 39109 ft | 505 kts | 63° |
| 2026-05-06 12:49 | 47.42113 | -25.76868 | 39111 ft | 502 kts | 64° |
| 2026-05-06 12:49 | 47.44980 | -25.67517 | 39106 ft | 499 kts | 64° |
| 2026-05-06 12:50 | 47.47834 | -25.58175 | 39107 ft | 499 kts | 64° |
| 2026-05-06 12:50 | 47.50680 | -25.48823 | 39108 ft | 499 kts | 64° |
| 2026-05-06 12:51 | 47.53507 | -25.39467 | 39106 ft | 495 kts | 64° |
| 2026-05-06 12:51 | 47.56275 | -25.30155 | 39115 ft | 494 kts | 64° |
| 2026-05-06 12:52 | 47.59059 | -25.20836 | 39106 ft | 495 kts | 64° |
| 2026-05-06 12:52 | 47.61851 | -25.11514 | 39103 ft | 495 kts | 64° |
| 2026-05-06 12:53 | 47.64640 | -25.02180 | 39110 ft | 495 kts | 65° |
| 2026-05-06 12:53 | 47.67413 | -24.92865 | 39113 ft | 495 kts | 65° |
| 2026-05-06 12:54 | 47.70185 | -24.83514 | 39108 ft | 494 kts | 65° |
| 2026-05-06 12:54 | 47.72947 | -24.74159 | 39109 ft | 494 kts | 65° |
| 2026-05-06 12:55 | 47.75699 | -24.64801 | 39117 ft | 494 kts | 65° |
| 2026-05-06 12:55 | 47.78442 | -24.55440 | 39118 ft | 494 kts | 65° |
| 2026-05-06 12:56 | 47.81178 | -24.46067 | 39119 ft | 494 kts | 65° |
| 2026-05-06 12:56 | 47.83906 | -24.36686 | 39115 ft | 494 kts | 66° |
| 2026-05-06 12:57 | 47.86614 | -24.27308 | 39126 ft | 491 kts | 65° |
| 2026-05-06 12:57 | 47.89270 | -24.17951 | 39125 ft | 490 kts | 65° |
| 2026-05-06 12:58 | 47.91936 | -24.08596 | 39125 ft | 490 kts | 65° |
| 2026-05-06 12:58 | 47.94610 | -23.99243 | 39122 ft | 490 kts | 65° |
| 2026-05-06 12:59 | 47.97287 | -23.89863 | 39120 ft | 492 kts | 65° |
| 2026-05-06 12:59 | 47.99961 | -23.80456 | 39116 ft | 492 kts | 65° |
| 2026-05-06 13:00 | 48.02625 | -23.71041 | 39129 ft | 492 kts | 65° |
| 2026-05-06 13:00 | 48.05283 | -23.61610 | 39129 ft | 493 kts | 65° |
| 2026-05-06 13:01 | 48.07927 | -23.52189 | 39127 ft | 490 kts | 65° |
| 2026-05-06 13:01 | 48.10552 | -23.42805 | 39127 ft | 489 kts | 65° |
| 2026-05-06 13:02 | 48.13153 | -23.33467 | 39121 ft | 489 kts | 65° |
| 2026-05-06 13:02 | 48.15766 | -23.24050 | 39141 ft | 489 kts | 65° |
| 2026-05-06 13:03 | 48.18376 | -23.14602 | 39129 ft | 492 kts | 65° |
| 2026-05-06 13:03 | 48.20949 | -23.05100 | 39127 ft | 492 kts | 66° |
| 2026-05-06 13:04 | 48.23525 | -22.95597 | 39132 ft | 492 kts | 66° |
| 2026-05-06 13:04 | 48.26111 | -22.86101 | 39139 ft | 492 kts | 65° |
| 2026-05-06 13:05 | 48.28704 | -22.76573 | 39131 ft | 493 kts | 65° |
| 2026-05-06 13:05 | 48.31291 | -22.67026 | 39132 ft | 493 kts | 66° |
| 2026-05-06 13:06 | 48.33870 | -22.57466 | 39134 ft | 493 kts | 66° |
| 2026-05-06 13:06 | 48.36438 | -22.47904 | 39135 ft | 493 kts | 66° |
| 2026-05-06 13:07 | 48.38999 | -22.38333 | 39133 ft | 493 kts | 66° |
| 2026-05-06 13:07 | 48.41552 | -22.28749 | 39132 ft | 493 kts | 66° |
| 2026-05-06 13:08 | 48.44096 | -22.19163 | 39133 ft | 493 kts | 66° |
| 2026-05-06 13:08 | 48.46628 | -22.09581 | 39138 ft | 493 kts | 66° |
| 2026-05-06 13:09 | 48.49141 | -22.00029 | 39130 ft | 494 kts | 66° |
| 2026-05-06 13:09 | 48.51631 | -21.90380 | 39134 ft | 494 kts | 67° |
| 2026-05-06 13:10 | 48.54120 | -21.80715 | 39133 ft | 494 kts | 67° |
| 2026-05-06 13:10 | 48.56621 | -21.71058 | 39136 ft | 494 kts | 67° |
| 2026-05-06 13:11 | 48.59111 | -21.61438 | 39134 ft | 491 kts | 67° |
| 2026-05-06 13:11 | 48.61590 | -21.51824 | 39131 ft | 491 kts | 67° |
| 2026-05-06 13:12 | 48.64062 | -21.42191 | 39132 ft | 491 kts | 67° |
| 2026-05-06 13:12 | 48.66524 | -21.32557 | 39139 ft | 491 kts | 67° |
| 2026-05-06 13:13 | 48.68982 | -21.22893 | 39131 ft | 493 kts | 67° |
| 2026-05-06 13:13 | 48.71437 | -21.13204 | 39131 ft | 493 kts | 67° |
| 2026-05-06 13:14 | 48.73883 | -21.03507 | 39127 ft | 493 kts | 68° |
| 2026-05-06 13:14 | 48.76320 | -20.93802 | 39133 ft | 493 kts | 68° |
| 2026-05-06 13:15 | 48.78745 | -20.84105 | 39125 ft | 491 kts | 68° |
| 2026-05-06 13:15 | 48.81130 | -20.74397 | 39123 ft | 491 kts | 68° |
| 2026-05-06 13:16 | 48.83502 | -20.64676 | 39124 ft | 491 kts | 68° |
| 2026-05-06 13:16 | 48.85872 | -20.55032 | 39128 ft | 491 kts | 68° |
| 2026-05-06 13:17 | 48.88259 | -20.45322 | 39127 ft | 489 kts | 68° |
| 2026-05-06 13:17 | 48.90629 | -20.35640 | 39120 ft | 489 kts | 68° |
| 2026-05-06 13:18 | 48.92991 | -20.25947 | 39123 ft | 489 kts | 68° |
| 2026-05-06 13:18 | 48.95345 | -20.16244 | 39123 ft | 489 kts | 68° |
| 2026-05-06 13:19 | 48.97687 | -20.06544 | 39120 ft | 488 kts | 68° |
| 2026-05-06 13:19 | 49.00020 | -19.96841 | 39118 ft | 488 kts | 68° |
| 2026-05-06 13:20 | 49.02344 | -19.87129 | 39118 ft | 488 kts | 68° |
| 2026-05-06 13:20 | 49.04659 | -19.77416 | 39121 ft | 488 kts | 68° |
| 2026-05-06 13:21 | 49.06966 | -19.67688 | 39119 ft | 488 kts | 68° |
| 2026-05-06 13:21 | 49.09248 | -19.57935 | 39116 ft | 488 kts | 69° |
| 2026-05-06 13:22 | 49.11504 | -19.48158 | 39116 ft | 488 kts | 69° |
| 2026-05-06 13:22 | 49.13773 | -19.38393 | 39116 ft | 488 kts | 69° |
| 2026-05-06 13:23 | 49.15662 | -19.30282 | 39118 ft | 487 kts | 69° |
| 2026-05-06 13:23 | 49.17917 | -19.20557 | 39114 ft | 487 kts | 69° |
| 2026-05-06 13:24 | 49.20073 | -19.10748 | 39111 ft | 487 kts | 70° |
| 2026-05-06 13:24 | 49.22176 | -19.00906 | 39113 ft | 487 kts | 70° |
| 2026-05-06 13:25 | 49.24276 | -18.91064 | 39113 ft | 485 kts | 70° |
| 2026-05-06 13:25 | 49.26366 | -18.81263 | 39111 ft | 484 kts | 70° |
| 2026-05-06 13:26 | 49.28446 | -18.71476 | 39110 ft | 484 kts | 70° |
| 2026-05-06 13:26 | 49.30521 | -18.61671 | 39111 ft | 484 kts | 70° |
| 2026-05-06 13:27 | 49.32584 | -18.51867 | 39110 ft | 484 kts | 70° |
| 2026-05-06 13:27 | 49.34641 | -18.42043 | 39108 ft | 484 kts | 70° |
| 2026-05-06 13:28 | 49.36679 | -18.32267 | 39108 ft | 484 kts | 70° |
| 2026-05-06 13:28 | 49.38720 | -18.22421 | 39108 ft | 484 kts | 70° |
| 2026-05-06 13:29 | 49.40751 | -18.12576 | 39118 ft | 484 kts | 70° |
| 2026-05-06 13:29 | 49.42765 | -18.02765 | 39109 ft | 481 kts | 70° |
| 2026-05-06 13:30 | 49.44742 | -17.92950 | 39107 ft | 481 kts | 70° |
| 2026-05-06 13:30 | 49.46700 | -17.83122 | 39109 ft | 481 kts | 70° |
| 2026-05-06 13:31 | 49.48676 | -17.73292 | 39107 ft | 481 kts | 70° |
| 2026-05-06 13:31 | 49.50650 | -17.63479 | 39106 ft | 479 kts | 70° |
| 2026-05-06 13:32 | 49.52614 | -17.53682 | 39107 ft | 479 kts | 70° |
| 2026-05-06 13:32 | 49.54567 | -17.43882 | 39108 ft | 479 kts | 70° |
| 2026-05-06 13:33 | 49.56513 | -17.34067 | 39107 ft | 479 kts | 70° |
| 2026-05-06 13:33 | 49.58448 | -17.24257 | 39103 ft | 478 kts | 70° |
| 2026-05-06 13:34 | 49.60374 | -17.14442 | 39102 ft | 478 kts | 70° |
| 2026-05-06 13:34 | 49.62280 | -17.04683 | 39102 ft | 478 kts | 70° |
| 2026-05-06 13:35 | 49.64187 | -16.94865 | 39099 ft | 478 kts | 71° |
| 2026-05-06 13:35 | 49.66087 | -16.85033 | 39105 ft | 478 kts | 71° |
| 2026-05-06 13:36 | 49.67972 | -16.75193 | 39092 ft | 478 kts | 71° |
| 2026-05-06 13:36 | 49.69811 | -16.65331 | 39094 ft | 478 kts | 71° |
| 2026-05-06 13:37 | 49.71662 | -16.55472 | 39095 ft | 478 kts | 71° |
| 2026-05-06 13:37 | 49.73525 | -16.45607 | 39111 ft | 478 kts | 71° |
| 2026-05-06 13:38 | 49.75385 | -16.35733 | 39096 ft | 479 kts | 71° |
| 2026-05-06 13:38 | 49.77235 | -16.25859 | 39091 ft | 479 kts | 71° |
| 2026-05-06 13:38 | 49.78161 | -16.20897 | 39216 ft | 480 kts | 71° |
| 2026-05-06 13:39 | 49.79085 | -16.15928 | 39388 ft | 481 kts | 71° |
| 2026-05-06 13:39 | 49.80007 | -16.10958 | 39568 ft | 481 kts | 72° |
| 2026-05-06 13:39 | 49.80929 | -16.05979 | 39748 ft | 481 kts | 72° |
| 2026-05-06 13:39 | 49.81849 | -16.00994 | 39955 ft | 481 kts | 72° |
| 2026-05-06 13:40 | 49.82764 | -15.96018 | 40137 ft | 481 kts | 72° |
| 2026-05-06 13:40 | 49.83680 | -15.91026 | 40302 ft | 481 kts | 72° |
| 2026-05-06 13:40 | 49.84594 | -15.86031 | 40477 ft | 482 kts | 72° |
| 2026-05-06 13:40 | 49.85495 | -15.81097 | 40629 ft | 482 kts | 72° |
| 2026-05-06 13:41 | 49.86405 | -15.76099 | 40790 ft | 482 kts | 72° |
| 2026-05-06 13:41 | 49.87312 | -15.71101 | 40996 ft | 481 kts | 72° |
| 2026-05-06 13:41 | 49.88217 | -15.66104 | 41062 ft | 482 kts | 72° |
| 2026-05-06 13:42 | 49.90025 | -15.56075 | 41093 ft | 483 kts | 72° |
| 2026-05-06 13:42 | 49.91794 | -15.46022 | 41091 ft | 483 kts | 73° |
| 2026-05-06 13:43 | 49.93551 | -15.35947 | 41092 ft | 483 kts | 73° |
| 2026-05-06 13:43 | 49.95324 | -15.25880 | 41089 ft | 483 kts | 72° |
| 2026-05-06 13:44 | 49.97099 | -15.15813 | 41085 ft | 483 kts | 72° |
| 2026-05-06 13:44 | 49.98868 | -15.05732 | 41086 ft | 483 kts | 73° |
| 2026-05-06 13:45 | 50.00206 | -14.95495 | 41093 ft | 486 kts | 84° |
| 2026-05-06 13:45 | 50.00283 | -14.79692 | 41093 ft | 488 kts | 89° |
| 2026-05-06 13:46 | 50.00197 | -14.69144 | 41083 ft | 488 kts | 88° |
| 2026-05-06 13:46 | 50.00185 | -14.58675 | 41084 ft | 488 kts | 88° |
| 2026-05-06 13:47 | 50.00197 | -14.48126 | 41080 ft | 488 kts | 88° |
| 2026-05-06 13:47 | 50.00202 | -14.37591 | 41083 ft | 488 kts | 88° |
| 2026-05-06 13:48 | 50.00194 | -14.27044 | 41076 ft | 488 kts | 88° |
| 2026-05-06 13:48 | 50.00175 | -14.16507 | 41082 ft | 488 kts | 88° |
| 2026-05-06 13:49 | 50.00147 | -14.05953 | 41075 ft | 488 kts | 88° |
| 2026-05-06 13:49 | 50.00921 | -13.95552 | 41081 ft | 483 kts | 73° |
| 2026-05-06 13:50 | 50.02913 | -13.85578 | 41082 ft | 483 kts | 69° |
| 2026-05-06 13:50 | 50.05024 | -13.75658 | 41076 ft | 483 kts | 70° |
| 2026-05-06 13:51 | 50.07021 | -13.65663 | 41072 ft | 484 kts | 71° |
| 2026-05-06 13:51 | 50.08952 | -13.55631 | 41075 ft | 483 kts | 71° |
| 2026-05-06 13:52 | 50.10863 | -13.45597 | 41079 ft | 483 kts | 71° |
| 2026-05-06 13:52 | 50.12769 | -13.35554 | 41087 ft | 484 kts | 72° |
| 2026-05-06 13:53 | 50.14669 | -13.25508 | 41077 ft | 484 kts | 72° |
| 2026-05-06 13:53 | 50.16563 | -13.15437 | 41074 ft | 484 kts | 72° |
| 2026-05-06 13:54 | 50.18447 | -13.05364 | 41073 ft | 484 kts | 72° |
| 2026-05-06 13:54 | 50.20325 | -12.95270 | 41069 ft | 484 kts | 72° |
| 2026-05-06 13:55 | 50.22196 | -12.85159 | 41069 ft | 484 kts | 72° |
| 2026-05-06 13:55 | 50.24049 | -12.75045 | 41069 ft | 485 kts | 72° |
| 2026-05-06 13:56 | 50.25845 | -12.64967 | 41069 ft | 485 kts | 72° |
| 2026-05-06 13:56 | 50.27665 | -12.54828 | 41066 ft | 485 kts | 72° |
| 2026-05-06 13:57 | 50.29498 | -12.44684 | 41070 ft | 485 kts | 72° |
| 2026-05-06 13:57 | 50.31327 | -12.34530 | 41067 ft | 485 kts | 72° |
| 2026-05-06 13:58 | 50.33146 | -12.24369 | 41065 ft | 485 kts | 73° |
| 2026-05-06 13:58 | 50.34956 | -12.14203 | 41064 ft | 485 kts | 73° |
| 2026-05-06 13:59 | 50.36757 | -12.04021 | 41063 ft | 485 kts | 73° |
| 2026-05-06 13:59 | 50.38551 | -11.93825 | 41061 ft | 485 kts | 73° |
| 2026-05-06 14:00 | 50.40336 | -11.83622 | 41061 ft | 486 kts | 73° |
| 2026-05-06 14:00 | 50.42112 | -11.73409 | 41062 ft | 486 kts | 73° |
| 2026-05-06 14:01 | 50.43880 | -11.63189 | 41069 ft | 486 kts | 73° |
| 2026-05-06 14:01 | 50.45639 | -11.52951 | 41061 ft | 486 kts | 73° |
| 2026-05-06 14:02 | 50.47354 | -11.42670 | 41059 ft | 486 kts | 74° |
| 2026-05-06 14:02 | 50.49052 | -11.32469 | 41055 ft | 486 kts | 73° |
| 2026-05-06 14:03 | 50.50778 | -11.22200 | 41056 ft | 486 kts | 73° |
| 2026-05-06 14:03 | 50.52505 | -11.11923 | 41055 ft | 486 kts | 74° |
| 2026-05-06 14:04 | 50.54223 | -11.01637 | 41047 ft | 487 kts | 74° |
| 2026-05-06 14:04 | 50.55931 | -10.91340 | 41050 ft | 487 kts | 74° |
| 2026-05-06 14:05 | 50.57630 | -10.81038 | 41045 ft | 487 kts | 74° |
| 2026-05-06 14:05 | 50.59319 | -10.70730 | 41046 ft | 487 kts | 74° |
| 2026-05-06 14:06 | 50.61003 | -10.60391 | 41043 ft | 487 kts | 74° |
| 2026-05-06 14:06 | 50.62676 | -10.50050 | 41043 ft | 487 kts | 74° |
| 2026-05-06 14:07 | 50.64342 | -10.39697 | 41039 ft | 487 kts | 74° |
| 2026-05-06 14:07 | 50.65999 | -10.29335 | 41047 ft | 487 kts | 75° |
| 2026-05-06 14:08 | 50.67346 | -10.20736 | 41040 ft | 488 kts | 75° |
| 2026-05-06 14:08 | 50.68944 | -10.10325 | 41037 ft | 488 kts | 75° |
| 2026-05-06 14:09 | 50.70559 | -9.99924 | 41032 ft | 488 kts | 75° |
| 2026-05-06 14:09 | 50.72179 | -9.89531 | 41035 ft | 488 kts | 75° |
| 2026-05-06 14:10 | 50.73796 | -9.79113 | 41036 ft | 488 kts | 75° |
| 2026-05-06 14:10 | 50.75390 | -9.68771 | 41033 ft | 488 kts | 75° |
| 2026-05-06 14:11 | 50.76984 | -9.58354 | 41027 ft | 488 kts | 75° |
| 2026-05-06 14:11 | 50.78569 | -9.47929 | 41027 ft | 488 kts | 75° |
| 2026-05-06 14:12 | 50.80146 | -9.37489 | 41035 ft | 488 kts | 75° |
| 2026-05-06 14:12 | 50.81716 | -9.27030 | 41023 ft | 488 kts | 75° |
| 2026-05-06 14:13 | 50.83275 | -9.16570 | 41023 ft | 488 kts | 76° |
| 2026-05-06 14:13 | 50.84823 | -9.06117 | 41032 ft | 488 kts | 76° |
| 2026-05-06 14:14 | 50.86357 | -8.95627 | 41017 ft | 488 kts | 76° |
| 2026-05-06 14:14 | 50.87841 | -8.85130 | 41024 ft | 489 kts | 76° |
| 2026-05-06 14:15 | 50.89339 | -8.74626 | 41023 ft | 489 kts | 76° |
| 2026-05-06 14:15 | 50.90841 | -8.64180 | 41023 ft | 489 kts | 76° |
| 2026-05-06 14:16 | 50.92346 | -8.53671 | 41026 ft | 489 kts | 76° |
| 2026-05-06 14:16 | 50.93842 | -8.43152 | 41024 ft | 489 kts | 76° |
| 2026-05-06 14:17 | 50.95329 | -8.32615 | 41024 ft | 490 kts | 76° |
| 2026-05-06 14:17 | 50.96806 | -8.22075 | 41024 ft | 490 kts | 76° |
| 2026-05-06 14:18 | 50.98274 | -8.11526 | 41024 ft | 489 kts | 76° |
| 2026-05-06 14:18 | 50.99730 | -8.00982 | 41030 ft | 489 kts | 76° |
| 2026-05-06 14:19 | 51.00822 | -7.90328 | 41031 ft | 490 kts | 83° |
| 2026-05-06 14:19 | 51.01428 | -7.79562 | 41030 ft | 490 kts | 84° |
| 2026-05-06 14:20 | 51.01989 | -7.68784 | 41030 ft | 489 kts | 84° |
| 2026-05-06 14:20 | 51.02585 | -7.58032 | 41029 ft | 489 kts | 84° |
| 2026-05-06 14:21 | 51.03195 | -7.47277 | 41029 ft | 489 kts | 84° |
| 2026-05-06 14:21 | 51.03797 | -7.36528 | 41030 ft | 488 kts | 84° |
| 2026-05-06 14:22 | 51.04387 | -7.25777 | 41030 ft | 488 kts | 84° |
| 2026-05-06 14:22 | 51.04965 | -7.15043 | 41026 ft | 488 kts | 84° |
| 2026-05-06 14:23 | 51.05532 | -7.04328 | 41029 ft | 487 kts | 84° |
| 2026-05-06 14:23 | 51.06091 | -6.93596 | 41030 ft | 487 kts | 84° |
| 2026-05-06 14:24 | 51.06639 | -6.82861 | 41033 ft | 487 kts | 84° |
| 2026-05-06 14:24 | 51.07173 | -6.72214 | 41031 ft | 486 kts | 85° |
| 2026-05-06 14:25 | 51.07686 | -6.61426 | 41032 ft | 486 kts | 85° |
| 2026-05-06 14:25 | 51.08153 | -6.50766 | 41032 ft | 486 kts | 85° |
| 2026-05-06 14:26 | 51.08640 | -6.40049 | 41028 ft | 486 kts | 85° |
| 2026-05-06 14:26 | 51.09136 | -6.29330 | 41029 ft | 485 kts | 85° |
| 2026-05-06 14:27 | 51.09626 | -6.18622 | 41026 ft | 485 kts | 85° |
| 2026-05-06 14:27 | 51.10104 | -6.07924 | 41026 ft | 485 kts | 85° |
| 2026-05-06 14:28 | 51.10572 | -5.97212 | 41023 ft | 485 kts | 85° |
| 2026-05-06 14:28 | 51.11029 | -5.86518 | 41020 ft | 484 kts | 85° |
| 2026-05-06 14:29 | 51.11476 | -5.75817 | 41020 ft | 485 kts | 85° |
| 2026-05-06 14:29 | 51.11914 | -5.65114 | 41017 ft | 485 kts | 86° |
| 2026-05-06 14:30 | 51.12343 | -5.54391 | 41015 ft | 485 kts | 86° |
| 2026-05-06 14:30 | 51.12761 | -5.43676 | 41014 ft | 485 kts | 86° |
| 2026-05-06 14:31 | 51.13166 | -5.32955 | 41009 ft | 485 kts | 86° |
| 2026-05-06 14:31 | 51.13516 | -5.22229 | 41011 ft | 485 kts | 86° |
| 2026-05-06 14:32 | 51.13876 | -5.11505 | 41010 ft | 485 kts | 86° |
| 2026-05-06 14:32 | 51.14250 | -5.00776 | 41011 ft | 485 kts | 86° |
| 2026-05-06 14:33 | 51.14620 | -4.90057 | 41009 ft | 485 kts | 86° |
| 2026-05-06 14:33 | 51.14981 | -4.79329 | 41009 ft | 485 kts | 86° |
| 2026-05-06 14:34 | 51.15329 | -4.68669 | 41006 ft | 485 kts | 86° |
| 2026-05-06 14:34 | 51.15669 | -4.57933 | 41004 ft | 485 kts | 86° |
| 2026-05-06 14:35 | 51.15999 | -4.47196 | 40998 ft | 485 kts | 86° |
| 2026-05-06 14:35 | 51.16320 | -4.36458 | 40996 ft | 485 kts | 87° |
| 2026-05-06 14:36 | 51.16630 | -4.25716 | 41001 ft | 485 kts | 87° |
| 2026-05-06 14:36 | 51.16931 | -4.14963 | 40992 ft | 486 kts | 87° |
| 2026-05-06 14:37 | 51.17223 | -4.04204 | 40990 ft | 486 kts | 87° |
| 2026-05-06 14:37 | 51.17467 | -3.93442 | 40989 ft | 486 kts | 88° |
| 2026-05-06 14:38 | 51.17698 | -3.82710 | 40992 ft | 486 kts | 88° |
| 2026-05-06 14:38 | 51.18167 | -3.71973 | 40991 ft | 486 kts | 82° |
| 2026-05-06 14:39 | 51.19212 | -3.61329 | 40992 ft | 486 kts | 79° |
| 2026-05-06 14:39 | 51.20359 | -3.50712 | 40993 ft | 486 kts | 80° |
| 2026-05-06 14:40 | 51.21453 | -3.40145 | 40994 ft | 486 kts | 80° |
| 2026-05-06 14:40 | 51.22517 | -3.29496 | 40995 ft | 486 kts | 81° |
| 2026-05-06 14:41 | 51.23566 | -3.18833 | 40990 ft | 487 kts | 81° |
| 2026-05-06 14:41 | 51.24607 | -3.08153 | 40990 ft | 487 kts | 81° |
| 2026-05-06 14:42 | 51.25640 | -2.97468 | 40989 ft | 487 kts | 81° |
| 2026-05-06 14:42 | 51.26662 | -2.86788 | 40991 ft | 487 kts | 81° |
| 2026-05-06 14:43 | 51.27677 | -2.76076 | 40990 ft | 488 kts | 81° |
| 2026-05-06 14:43 | 51.28682 | -2.65362 | 40990 ft | 488 kts | 81° |
| 2026-05-06 14:44 | 51.29678 | -2.54635 | 40989 ft | 488 kts | 81° |
| 2026-05-06 14:45 | 51.31113 | -2.38593 | 40993 ft | 488 kts | 82° |
| 2026-05-06 14:45 | 51.32042 | -2.27857 | 40993 ft | 489 kts | 82° |
| 2026-05-06 14:46 | 51.32994 | -2.17089 | 40993 ft | 489 kts | 82° |
| 2026-05-06 14:46 | 51.33947 | -2.06327 | 40994 ft | 489 kts | 82° |
| 2026-05-06 14:47 | 51.35352 | -1.95703 | 40995 ft | 488 kts | 72° |
| 2026-05-06 14:47 | 51.37609 | -1.85437 | 40993 ft | 489 kts | 69° |
| 2026-05-06 14:48 | 51.39978 | -1.75234 | 40993 ft | 489 kts | 70° |
| 2026-05-06 14:48 | 51.42269 | -1.64980 | 40993 ft | 489 kts | 70° |
| 2026-05-06 14:49 | 51.44514 | -1.54687 | 40991 ft | 489 kts | 70° |
| 2026-05-06 14:49 | 51.46746 | -1.44397 | 40985 ft | 489 kts | 70° |
| 2026-05-06 14:50 | 51.48978 | -1.34070 | 40986 ft | 490 kts | 70° |
| 2026-05-06 14:50 | 51.51202 | -1.23742 | 40989 ft | 490 kts | 71° |
| 2026-05-06 14:51 | 51.53340 | -1.13345 | 40992 ft | 490 kts | 73° |
| 2026-05-06 14:51 | 51.55092 | -1.02775 | 40992 ft | 490 kts | 76° |
| 2026-05-06 14:52 | 51.56743 | -0.92155 | 40985 ft | 490 kts | 76° |
| 2026-05-06 14:52 | 51.58410 | -0.81534 | 40986 ft | 490 kts | 76° |
| 2026-05-06 14:53 | 51.60078 | -0.70991 | 40991 ft | 490 kts | 76° |
| 2026-05-06 14:53 | 51.61750 | -0.60380 | 40993 ft | 490 kts | 76° |
| 2026-05-06 14:54 | 51.63415 | -0.49746 | 40992 ft | 490 kts | 76° |
| 2026-05-06 14:54 | 51.64802 | -0.40832 | 40994 ft | 490 kts | 76° |
| 2026-05-06 14:55 | 51.66449 | -0.30175 | 41047 ft | 490 kts | 76° |
| 2026-05-06 14:55 | 51.68112 | -0.19604 | 41049 ft | 490 kts | 75° |
| 2026-05-06 14:56 | 51.69727 | -0.09640 | 41044 ft | 490 kts | 76° |
| 2026-05-06 14:56 | 51.71400 | 0.01010 | 40987 ft | 490 kts | 76° |
| 2026-05-06 14:57 | 51.72928 | 0.10833 | 40989 ft | 490 kts | 76° |
| 2026-05-06 14:57 | 51.74583 | 0.21516 | 40992 ft | 490 kts | 76° |
| 2026-05-06 14:58 | 51.76229 | 0.32199 | 40992 ft | 490 kts | 76° |
| 2026-05-06 14:58 | 51.77868 | 0.42905 | 40988 ft | 491 kts | 76° |
| 2026-05-06 14:59 | 51.79494 | 0.53597 | 40985 ft | 490 kts | 76° |
| 2026-05-06 14:59 | 51.81110 | 0.64300 | 40973 ft | 491 kts | 76° |
| 2026-05-06 15:00 | 51.82728 | 0.75026 | 40969 ft | 492 kts | 76° |
| 2026-05-06 15:00 | 51.84459 | 0.85732 | 40967 ft | 492 kts | 74° |
| 2026-05-06 15:01 | 51.86388 | 0.96350 | 40969 ft | 492 kts | 73° |
| 2026-05-06 15:01 | 51.88344 | 1.06945 | 40963 ft | 491 kts | 73° |
| 2026-05-06 15:02 | 51.90272 | 1.17543 | 40964 ft | 491 kts | 74° |
| 2026-05-06 15:02 | 51.92172 | 1.28101 | 40964 ft | 491 kts | 74° |
| 2026-05-06 15:03 | 51.94069 | 1.38720 | 40962 ft | 491 kts | 74° |
| 2026-05-06 15:03 | 51.95958 | 1.49347 | 40961 ft | 491 kts | 74° |
| 2026-05-06 15:04 | 51.97832 | 1.59953 | 40085 ft | 488 kts | 74° |
| 2026-05-06 15:04 | 51.98763 | 1.65256 | 39105 ft | 488 kts | 75° |
| 2026-05-06 15:04 | 51.99647 | 1.70569 | 38013 ft | 488 kts | 76° |
| 2026-05-06 15:04 | 52.00480 | 1.75885 | 36817 ft | 486 kts | 76° |
| 2026-05-06 15:05 | 52.01293 | 1.81203 | 35648 ft | 484 kts | 76° |
| 2026-05-06 15:05 | 52.02112 | 1.86582 | 35145 ft | 495 kts | 76° |
| 2026-05-06 15:05 | 52.02949 | 1.92061 | 35022 ft | 505 kts | 76° |
| 2026-05-06 15:05 | 52.03805 | 1.97651 | 34903 ft | 514 kts | 76° |
| 2026-05-06 15:06 | 52.04675 | 2.03313 | 34783 ft | 520 kts | 76° |
| 2026-05-06 15:06 | 52.05554 | 2.09049 | 34664 ft | 525 kts | 76° |
| 2026-05-06 15:06 | 52.06439 | 2.14830 | 34545 ft | 529 kts | 76° |
| 2026-05-06 15:06 | 52.07328 | 2.20659 | 34426 ft | 532 kts | 76° |
| 2026-05-06 15:07 | 52.08215 | 2.26496 | 34305 ft | 534 kts | 76° |
| 2026-05-06 15:07 | 52.09104 | 2.32375 | 34183 ft | 536 kts | 76° |
| 2026-05-06 15:07 | 52.09991 | 2.38263 | 34058 ft | 537 kts | 76° |
| 2026-05-06 15:07 | 52.10878 | 2.44168 | 33945 ft | 537 kts | 76° |
| 2026-05-06 15:08 | 52.11813 | 2.50051 | 33786 ft | 538 kts | 75° |
| 2026-05-06 15:08 | 52.12847 | 2.55890 | 33653 ft | 539 kts | 73° |
| 2026-05-06 15:08 | 52.13980 | 2.61705 | 33519 ft | 540 kts | 71° |
| 2026-05-06 15:08 | 52.15210 | 2.67483 | 33369 ft | 541 kts | 70° |
| 2026-05-06 15:09 | 52.16534 | 2.73230 | 33243 ft | 541 kts | 69° |
| 2026-05-06 15:09 | 52.17936 | 2.78907 | 33097 ft | 536 kts | 67° |
| 2026-05-06 15:09 | 52.19353 | 2.84111 | 32112 ft | 490 kts | 64° |
| 2026-05-06 15:09 | 52.21053 | 2.88853 | 29784 ft | 483 kts | 54° |
| 2026-05-06 15:10 | 52.23210 | 2.92965 | 27457 ft | 477 kts | 44° |
| 2026-05-06 15:10 | 52.25615 | 2.96584 | 25493 ft | 464 kts | 40° |
| 2026-05-06 15:10 | 52.27939 | 2.99854 | 23744 ft | 453 kts | 40° |
| 2026-05-06 15:10 | 52.30111 | 3.03268 | 21804 ft | 443 kts | 46° |
| 2026-05-06 15:11 | 52.32075 | 3.07047 | 20027 ft | 429 kts | 51° |
| 2026-05-06 15:11 | 52.33795 | 3.11020 | 18733 ft | 427 kts | 56° |
| 2026-05-06 15:11 | 52.35360 | 3.15101 | 18141 ft | 420 kts | 58° |
| 2026-05-06 15:11 | 52.36841 | 3.19185 | 17489 ft | 417 kts | 58° |
| 2026-05-06 15:12 | 52.38282 | 3.23262 | 16851 ft | 410 kts | 59° |
| 2026-05-06 15:12 | 52.39696 | 3.27306 | 16250 ft | 408 kts | 59° |
| 2026-05-06 15:12 | 52.41095 | 3.31313 | 15662 ft | 402 kts | 59° |
| 2026-05-06 15:12 | 52.42476 | 3.35272 | 15087 ft | 400 kts | 59° |
| 2026-05-06 15:13 | 52.43851 | 3.39209 | 14498 ft | 395 kts | 59° |
| 2026-05-06 15:13 | 52.45019 | 3.43251 | 13940 ft | 392 kts | 68° |
| 2026-05-06 15:13 | 52.45814 | 3.47513 | 13350 ft | 389 kts | 75° |
| 2026-05-06 15:13 | 52.46437 | 3.51794 | 12773 ft | 382 kts | 77° |
| 2026-05-06 15:14 | 52.47003 | 3.56033 | 12229 ft | 379 kts | 76° |
| 2026-05-06 15:14 | 52.47559 | 3.60227 | 11686 ft | 374 kts | 77° |
| 2026-05-06 15:14 | 52.48117 | 3.64363 | 11160 ft | 370 kts | 76° |
| 2026-05-06 15:14 | 52.48681 | 3.68457 | 10798 ft | 366 kts | 77° |
| 2026-05-06 15:15 | 52.49243 | 3.72493 | 10639 ft | 352 kts | 76° |
| 2026-05-06 15:15 | 52.49771 | 3.76282 | 10529 ft | 331 kts | 76° |
| 2026-05-06 15:15 | 52.50272 | 3.79856 | 10408 ft | 312 kts | 76° |
| 2026-05-06 15:15 | 52.50745 | 3.83234 | 10287 ft | 295 kts | 76° |
| 2026-05-06 15:16 | 52.51199 | 3.86472 | 10169 ft | 288 kts | 76° |
| 2026-05-06 15:16 | 52.51647 | 3.89659 | 10061 ft | 286 kts | 76° |
| 2026-05-06 15:16 | 52.52049 | 3.92844 | 9925 ft | 285 kts | 81° |
| 2026-05-06 15:16 | 52.52011 | 3.96088 | 9868 ft | 287 kts | 101° |
| 2026-05-06 15:17 | 52.51205 | 3.99062 | 9810 ft | 287 kts | 123° |
| 2026-05-06 15:17 | 52.49930 | 4.01598 | 9756 ft | 289 kts | 131° |
| 2026-05-06 15:17 | 52.48552 | 4.03980 | 9698 ft | 287 kts | 133° |
| 2026-05-06 15:17 | 52.47165 | 4.06325 | 9624 ft | 286 kts | 133° |
| 2026-05-06 15:18 | 52.45780 | 4.08671 | 9538 ft | 287 kts | 133° |
| 2026-05-06 15:18 | 52.44394 | 4.11033 | 9485 ft | 288 kts | 132° |
| 2026-05-06 15:18 | 52.43007 | 4.13408 | 9174 ft | 288 kts | 133° |
| 2026-05-06 15:18 | 52.41632 | 4.15768 | 8752 ft | 286 kts | 131° |
| 2026-05-06 15:19 | 52.40266 | 4.18117 | 8298 ft | 283 kts | 131° |
| 2026-05-06 15:19 | 52.38919 | 4.20434 | 7830 ft | 279 kts | 131° |
| 2026-05-06 15:19 | 52.37590 | 4.22723 | 7392 ft | 275 kts | 131° |
| 2026-05-06 15:19 | 52.36276 | 4.24984 | 6978 ft | 273 kts | 131° |
| 2026-05-06 15:20 | 52.34978 | 4.27217 | 6580 ft | 270 kts | 131° |
| 2026-05-06 15:20 | 52.33689 | 4.29430 | 6162 ft | 267 kts | 130° |
| 2026-05-06 15:20 | 52.32418 | 4.31616 | 5733 ft | 264 kts | 130° |
| 2026-05-06 15:20 | 52.31157 | 4.33777 | 5339 ft | 261 kts | 131° |
| 2026-05-06 15:21 | 52.29909 | 4.35919 | 4961 ft | 259 kts | 129° |
| 2026-05-06 15:21 | 52.28672 | 4.38039 | 4588 ft | 257 kts | 129° |
| 2026-05-06 15:21 | 52.27442 | 4.40145 | 4213 ft | 255 kts | 129° |
| 2026-05-06 15:21 | 52.26104 | 4.42003 | 3974 ft | 250 kts | 140° |
| 2026-05-06 15:22 | 52.24699 | 4.43538 | 3886 ft | 237 kts | 143° |
| 2026-05-06 15:22 | 52.23338 | 4.44956 | 3756 ft | 227 kts | 143° |
| 2026-05-06 15:22 | 52.22147 | 4.46552 | 3513 ft | 218 kts | 124° |
| 2026-05-06 15:22 | 52.21478 | 4.48681 | 3166 ft | 206 kts | 107° |
| 2026-05-06 15:23 | 52.21089 | 4.50866 | 2789 ft | 195 kts | 93° |
| 2026-05-06 15:23 | 52.21267 | 4.52947 | 2453 ft | 182 kts | 64° |
| 2026-05-06 15:23 | 52.21849 | 4.54704 | 2172 ft | 172 kts | 59° |
| 2026-05-06 15:23 | 52.22381 | 4.56396 | 1996 ft | 162 kts | 60° |
| 2026-05-06 15:24 | 52.22901 | 4.58003 | 1964 ft | 160 kts | 58° |
| 2026-05-06 15:24 | 52.23461 | 4.59576 | 1983 ft | 161 kts | 57° |
| 2026-05-06 15:24 | 52.24063 | 4.61111 | 1861 ft | 158 kts | 55° |
| 2026-05-06 15:24 | 52.24624 | 4.62555 | 1564 ft | 143 kts | 54° |
| 2026-05-06 15:25 | 52.25125 | 4.63851 | 1379 ft | 132 kts | 56° |
| 2026-05-06 15:25 | 52.25601 | 4.65085 | 1238 ft | 126 kts | 56° |
| 2026-05-06 15:25 | 52.26076 | 4.66300 | 1073 ft | 127 kts | 54° |
| 2026-05-06 15:25 | 52.26546 | 4.67541 | 926 ft | 130 kts | 56° |
| 2026-05-06 15:26 | 52.27026 | 4.68795 | 746 ft | 130 kts | 55° |
| 2026-05-06 15:26 | 52.27517 | 4.70066 | 550 ft | 136 kts | 56° |
| 2026-05-06 15:26 | 52.28021 | 4.71381 | 405 ft | 135 kts | 58° |
| 2026-05-06 15:26 | 52.28518 | 4.72672 | 201 ft | 134 kts | 60° |
| 2026-05-06 15:27 | 52.29008 | 4.73970 | 28 ft | 133 kts | 59° |
| 2026-05-06 15:27 | 52.29449 | 4.75125 | 4 ft | 103 kts | 58° |
| 2026-05-06 15:27 | 52.29763 | 4.75943 | 5 ft | 67 kts | 58° |
| 2026-05-06 15:27 | 52.29946 | 4.76413 | 4 ft | 31 kts | 54° |
| 2026-05-06 15:28 | 52.30107 | 4.76605 | 6 ft | 27 kts | 28° |
| 2026-05-06 15:28 | 52.30262 | 4.76738 | 6 ft | 22 kts | 32° |
| 2026-05-06 15:28 | 52.30351 | 4.76920 | 6 ft | 19 kts | 58° |
| 2026-05-06 15:28 | 52.30422 | 4.77110 | 6 ft | 21 kts | 58° |
| 2026-05-06 15:29 | 52.30509 | 4.77336 | 6 ft | 25 kts | 58° |
| 2026-05-06 15:29 | 52.30608 | 4.77550 | 6 ft | 23 kts | 34° |
| 2026-05-06 15:29 | 52.30785 | 4.77599 | 6 ft | 29 kts | 3° |
| 2026-05-06 15:29 | 52.30957 | 4.77614 | 6 ft | 16 kts | 360° |
| 2026-05-06 15:30 | 52.31046 | 4.77496 | 7 ft | 20 kts | 301° |
| 2026-05-06 15:30 | 52.31074 | 4.77233 | 6 ft | 27 kts | 273° |
| 2026-05-06 15:30 | 52.31096 | 4.76955 | 6 ft | 18 kts | 297° |
| 2026-05-06 15:30 | 52.31153 | 4.76813 | 6 ft | 8 kts | 304° |
| 2026-05-06 15:31 | 52.31167 | 4.76778 | 7 ft | 2 kts | 303° |
| 2026-05-06 15:31 | 52.31168 | 4.76776 | 7 ft | 0 kts | 303° |